Time,TemperatureF,DewpointF,PressureIn,WindDirection,WindDirectionDegrees,WindSpeedMPH,WindSpeedGustMPH,Humidity,HourlyPrecipIn,Conditions,Clouds,dailyrainin,SoftwareType,DateUTC
2013-02-09 00:01:00,28.9,11.2,0.00,SSE,161,0.0,0.0,47,0.00,,---,0.00,VWS V14.00,2013-02-09 07:01:00,
2013-02-09 00:02:00,28.9,11.2,0.00,SSE,161,0.0,0.0,47,0.00,,---,0.00,VWS V14.00,2013-02-09 07:02:00,
2013-02-09 00:06:00,28.9,11.7,0.00,ESE,120,2.2,2.2,48,0.00,,---,0.00,VWS V14.00,2013-02-09 07:06:00,
2013-02-09 00:07:00,28.9,11.7,0.00,SE,127,0.0,0.0,48,0.00,,---,0.00,VWS V14.00,2013-02-09 07:07:00,
2013-02-09 00:11:00,28.9,11.2,0.00,ESE,114,0.0,0.0,47,0.00,,---,0.00,VWS V14.00,2013-02-09 07:11:00,
2013-02-09 00:12:00,28.9,11.2,0.00,East,98,0.0,2.7,47,0.00,,---,0.00,VWS V14.00,2013-02-09 07:12:00,
2013-02-09 00:13:00,28.9,11.2,0.00,East,100,0.0,0.0,47,0.00,,---,0.00,VWS V14.00,2013-02-09 07:13:00,
2013-02-09 00:16:00,28.9,11.2,0.00,SSE,148,0.0,0.0,47,0.00,,---,0.00,VWS V14.00,2013-02-09 07:16:00,
2013-02-09 00:17:00,28.9,11.2,0.00,SSE,147,0.0,0.0,47,0.00,,---,0.00,VWS V14.00,2013-02-09 07:17:00,
2013-02-09 00:18:00,28.9,11.2,0.00,SSE,148,0.0,0.0,47,0.00,,---,0.00,VWS V14.00,2013-02-09 07:18:00,
2013-02-09 00:21:00,28.9,11.2,0.00,East,95,2.7,2.7,47,0.00,,---,0.00,VWS V14.00,2013-02-09 07:21:00,
2013-02-09 00:22:00,28.9,11.2,0.00,ESE,122,2.7,4.9,47,0.00,,---,0.00,VWS V14.00,2013-02-09 07:22:00,
2013-02-09 00:23:00,28.9,11.2,0.00,ESE,122,0.0,0.0,47,0.00,,---,0.00,VWS V14.00,2013-02-09 07:23:00,
2013-02-09 00:26:00,28.8,11.1,0.00,ESE,112,0.0,2.7,47,0.00,,---,0.00,VWS V14.00,2013-02-09 07:26:00,
2013-02-09 00:27:00,28.8,11.1,0.00,ESE,112,2.2,2.7,47,0.00,,---,0.00,VWS V14.00,2013-02-09 07:27:00,
2013-02-09 00:28:00,28.8,11.1,0.00,ESE,112,2.2,2.2,47,0.00,,---,0.00,VWS V14.00,2013-02-09 07:28:00,
2013-02-09 00:31:00,28.8,11.1,0.00,North,349,3.6,3.6,47,0.00,,---,0.00,VWS V14.00,2013-02-09 07:31:00,
2013-02-09 00:32:00,28.8,11.1,0.00,NNW,334,0.0,0.0,47,0.00,,---,0.00,VWS V14.00,2013-02-09 07:32:00,
2013-02-09 00:33:00,28.8,11.1,0.00,NW,310,2.2,2.2,47,0.00,,---,0.00,VWS V14.00,2013-02-09 07:33:00,
2013-02-09 00:36:00,28.8,11.1,0.00,ESE,118,2.7,4.0,47,0.00,,---,0.00,VWS V14.00,2013-02-09 07:36:00,
2013-02-09 00:37:00,28.8,11.1,0.00,ESE,115,3.1,3.1,47,0.00,,---,0.00,VWS V14.00,2013-02-09 07:37:00,
2013-02-09 00:38:00,28.8,11.1,0.00,ESE,115,0.0,0.0,47,0.00,,---,0.00,VWS V14.00,2013-02-09 07:38:00,
2013-02-09 00:42:00,28.8,11.1,0.00,SSE,158,0.0,0.0,47,0.00,,---,0.00,VWS V14.00,2013-02-09 07:42:00,
2013-02-09 00:43:00,28.8,10.6,0.00,SSE,164,0.0,0.0,46,0.00,,---,0.00,VWS V14.00,2013-02-09 07:43:00,
2013-02-09 00:46:00,28.6,10.4,0.00,East,90,2.2,4.0,46,0.00,,---,0.00,VWS V14.00,2013-02-09 07:46:00,
2013-02-09 00:48:00,28.6,10.4,0.00,ESE,116,0.0,0.0,46,0.00,,---,0.00,VWS V14.00,2013-02-09 07:48:00,
2013-02-09 00:52:00,28.6,10.9,0.00,ESE,103,2.2,2.2,47,0.00,,---,0.00,VWS V14.00,2013-02-09 07:52:00,
2013-02-09 00:53:00,28.6,10.9,0.00,SE,133,3.1,3.1,47,0.00,,---,0.00,VWS V14.00,2013-02-09 07:53:00,
2013-02-09 00:57:00,28.6,10.9,0.00,SE,144,0.0,0.0,47,0.00,,---,0.00,VWS V14.00,2013-02-09 07:57:00,
2013-02-09 00:58:00,28.6,10.9,0.00,WSW,251,0.0,0.0,47,0.00,,---,0.00,VWS V14.00,2013-02-09 07:58:00,
2013-02-09 00:59:00,28.6,10.9,0.00,SSW,204,0.0,0.0,47,0.00,,---,0.00,VWS V14.00,2013-02-09 07:59:00,
2013-02-09 01:02:00,28.6,10.9,0.00,ENE,72,5.4,5.4,47,0.00,,---,0.00,VWS V14.00,2013-02-09 08:02:00,
2013-02-09 01:03:00,28.6,10.9,0.00,ENE,78,3.1,3.1,47,0.00,,---,0.00,VWS V14.00,2013-02-09 08:03:00,
2013-02-09 01:04:00,28.6,10.9,0.00,East,83,0.0,3.6,47,0.00,,---,0.00,VWS V14.00,2013-02-09 08:04:00,
2013-02-09 01:07:00,28.6,10.9,0.00,SE,132,0.0,4.0,47,0.00,,---,0.00,VWS V14.00,2013-02-09 08:07:00,
2013-02-09 01:08:00,28.6,10.9,0.00,East,92,2.7,2.7,47,0.00,,---,0.00,VWS V14.00,2013-02-09 08:08:00,
2013-02-09 01:09:00,28.6,10.9,0.00,ESE,112,3.1,3.1,47,0.00,,---,0.00,VWS V14.00,2013-02-09 08:09:00,
2013-02-09 01:12:00,28.6,10.9,0.00,SE,137,4.9,6.3,47,0.00,,---,0.00,VWS V14.00,2013-02-09 08:12:00,
2013-02-09 01:13:00,28.6,10.4,0.00,ESE,105,6.3,8.1,46,0.00,,---,0.00,VWS V14.00,2013-02-09 08:13:00,
2013-02-09 01:14:00,28.4,10.8,0.00,SE,125,2.7,2.7,47,0.00,,---,0.00,VWS V14.00,2013-02-09 08:14:00,
2013-02-09 01:17:00,28.4,10.8,0.00,East,97,0.0,4.5,47,0.00,,---,0.00,VWS V14.00,2013-02-09 08:17:00,
2013-02-09 01:18:00,28.4,10.8,0.00,East,97,0.0,0.0,47,0.00,,---,0.00,VWS V14.00,2013-02-09 08:18:00,
2013-02-09 01:19:00,28.4,10.3,0.00,East,97,2.2,2.2,46,0.00,,---,0.00,VWS V14.00,2013-02-09 08:19:00,
2013-02-09 01:23:00,28.4,10.3,0.00,ESE,119,0.0,0.0,46,0.00,,---,0.00,VWS V14.00,2013-02-09 08:23:00,
2013-02-09 01:24:00,28.4,10.3,0.00,ESE,111,0.0,0.0,46,0.00,,---,0.00,VWS V14.00,2013-02-09 08:24:00,
2013-02-09 01:28:00,28.4,10.3,0.00,ESE,113,0.0,0.0,46,0.00,,---,0.00,VWS V14.00,2013-02-09 08:28:00,
2013-02-09 01:29:00,28.2,10.1,0.00,ESE,119,0.0,2.2,46,0.00,,---,0.00,VWS V14.00,2013-02-09 08:29:00,
2013-02-09 01:33:00,28.2,10.1,0.00,East,87,0.0,0.0,46,0.00,,---,0.00,VWS V14.00,2013-02-09 08:33:00,
2013-02-09 01:34:00,28.2,10.1,0.00,East,86,0.0,0.0,46,0.00,,---,0.00,VWS V14.00,2013-02-09 08:34:00,
2013-02-09 01:38:00,28.2,10.1,0.00,East,87,0.0,0.0,46,0.00,,---,0.00,VWS V14.00,2013-02-09 08:38:00,
2013-02-09 01:39:00,28.2,10.1,0.00,East,92,0.0,0.0,46,0.00,,---,0.00,VWS V14.00,2013-02-09 08:39:00,
2013-02-09 01:43:00,28.0,9.9,0.00,ENE,78,0.0,0.0,46,0.00,,---,0.00,VWS V14.00,2013-02-09 08:43:00,
2013-02-09 01:44:00,28.0,9.9,0.00,East,81,0.0,0.0,46,0.00,,---,0.00,VWS V14.00,2013-02-09 08:44:00,
2013-02-09 01:45:00,28.0,9.9,0.00,East,79,0.0,0.0,46,0.00,,---,0.00,VWS V14.00,2013-02-09 08:45:00,
2013-02-09 01:48:00,28.0,9.4,0.00,ESE,118,0.0,0.0,45,0.00,,---,0.00,VWS V14.00,2013-02-09 08:48:00,
2013-02-09 01:49:00,28.0,9.4,0.00,ESE,115,0.0,0.0,45,0.00,,---,0.00,VWS V14.00,2013-02-09 08:49:00,
2013-02-09 01:50:00,28.0,9.4,0.00,ESE,117,0.0,0.0,45,0.00,,---,0.00,VWS V14.00,2013-02-09 08:50:00,
2013-02-09 01:53:00,27.9,9.3,0.00,ESE,116,0.0,0.0,45,0.00,,---,0.00,VWS V14.00,2013-02-09 08:53:00,
2013-02-09 01:54:00,27.9,9.3,0.00,ESE,117,0.0,0.0,45,0.00,,---,0.00,VWS V14.00,2013-02-09 08:54:00,
2013-02-09 01:55:00,27.9,9.3,0.00,SSE,158,0.0,2.7,45,0.00,,---,0.00,VWS V14.00,2013-02-09 08:55:00,
2013-02-09 01:58:00,27.9,9.3,0.00,East,98,0.0,0.0,45,0.00,,---,0.00,VWS V14.00,2013-02-09 08:58:00,
2013-02-09 01:59:00,27.9,9.3,0.00,East,98,0.0,0.0,45,0.00,,---,0.00,VWS V14.00,2013-02-09 08:59:00,
2013-02-09 02:00:00,27.9,9.3,0.00,East,98,0.0,0.0,45,0.00,,---,0.00,VWS V14.00,2013-02-09 09:00:00,
2013-02-09 02:03:00,27.7,9.1,0.00,East,98,2.7,3.1,45,0.00,,---,0.00,VWS V14.00,2013-02-09 09:03:00,
2013-02-09 02:04:00,27.7,9.1,0.00,East,98,0.0,0.0,45,0.00,,---,0.00,VWS V14.00,2013-02-09 09:04:00,
2013-02-09 02:05:00,27.7,9.1,0.00,SSE,153,0.0,0.0,45,0.00,,---,0.00,VWS V14.00,2013-02-09 09:05:00,
2013-02-09 02:08:00,27.7,9.1,0.00,SSE,150,0.0,0.0,45,0.00,,---,0.00,VWS V14.00,2013-02-09 09:08:00,
2013-02-09 02:09:00,27.7,9.1,0.00,SSE,150,0.0,0.0,45,0.00,,---,0.00,VWS V14.00,2013-02-09 09:09:00,
2013-02-09 02:10:00,27.5,9.0,0.00,SSE,150,0.0,0.0,45,0.00,,---,0.00,VWS V14.00,2013-02-09 09:10:00,
2013-02-09 02:13:00,27.5,9.0,0.00,SSE,149,0.0,0.0,45,0.00,,---,0.00,VWS V14.00,2013-02-09 09:13:00,
2013-02-09 02:14:00,27.5,9.0,0.00,SSE,147,0.0,0.0,45,0.00,,---,0.00,VWS V14.00,2013-02-09 09:14:00,
2013-02-09 02:15:00,27.5,9.0,0.00,SSE,150,0.0,0.0,45,0.00,,---,0.00,VWS V14.00,2013-02-09 09:15:00,
2013-02-09 02:19:00,27.3,8.3,0.00,South,188,0.0,0.0,44,0.00,,---,0.00,VWS V14.00,2013-02-09 09:19:00,
2013-02-09 02:20:00,27.3,8.3,0.00,South,191,0.0,0.0,44,0.00,,---,0.00,VWS V14.00,2013-02-09 09:20:00,
2013-02-09 02:24:00,27.1,8.1,0.00,WSW,244,0.0,0.0,44,0.00,,---,0.00,VWS V14.00,2013-02-09 09:24:00,
2013-02-09 02:25:00,27.1,8.1,0.00,WSW,244,0.0,0.0,44,0.00,,---,0.00,VWS V14.00,2013-02-09 09:25:00,
2013-02-09 02:29:00,27.1,8.1,0.00,WSW,244,0.0,0.0,44,0.00,,---,0.00,VWS V14.00,2013-02-09 09:29:00,
2013-02-09 02:30:00,27.0,8.0,0.00,WSW,244,0.0,0.0,44,0.00,,---,0.00,VWS V14.00,2013-02-09 09:30:00,
2013-02-09 02:34:00,27.0,8.0,0.00,WSW,244,0.0,0.0,44,0.00,,---,0.00,VWS V14.00,2013-02-09 09:34:00,
2013-02-09 02:35:00,27.0,8.0,0.00,WSW,245,0.0,0.0,44,0.00,,---,0.00,VWS V14.00,2013-02-09 09:35:00,
2013-02-09 02:39:00,26.8,7.8,0.00,West,260,0.0,0.0,44,0.00,,---,0.00,VWS V14.00,2013-02-09 09:39:00,
2013-02-09 02:40:00,26.8,7.8,0.00,West,260,0.0,0.0,44,0.00,,---,0.00,VWS V14.00,2013-02-09 09:40:00,
2013-02-09 02:44:00,26.6,7.6,0.00,West,260,0.0,0.0,44,0.00,,---,0.00,VWS V14.00,2013-02-09 09:44:00,
2013-02-09 02:45:00,26.6,7.6,0.00,West,259,0.0,0.0,44,0.00,,---,0.00,VWS V14.00,2013-02-09 09:45:00,
2013-02-09 02:49:00,26.4,7.5,0.00,West,259,0.0,0.0,44,0.00,,---,0.00,VWS V14.00,2013-02-09 09:49:00,
2013-02-09 02:50:00,26.4,7.5,0.00,WSW,258,0.0,0.0,44,0.00,,---,0.00,VWS V14.00,2013-02-09 09:50:00,
2013-02-09 02:51:00,26.4,7.5,0.00,West,259,0.0,0.0,44,0.00,,---,0.00,VWS V14.00,2013-02-09 09:51:00,
2013-02-09 02:54:00,26.2,7.3,0.00,WSW,250,0.0,0.0,44,0.00,,---,0.00,VWS V14.00,2013-02-09 09:54:00,
2013-02-09 02:55:00,26.2,7.3,0.00,WSW,252,0.0,0.0,44,0.00,,---,0.00,VWS V14.00,2013-02-09 09:55:00,
2013-02-09 02:56:00,26.2,7.3,0.00,West,260,0.0,0.0,44,0.00,,---,0.00,VWS V14.00,2013-02-09 09:56:00,
2013-02-09 02:59:00,26.1,7.2,0.00,WSW,258,0.0,0.0,44,0.00,,---,0.00,VWS V14.00,2013-02-09 09:59:00,
2013-02-09 03:00:00,26.1,7.2,0.00,WSW,257,0.0,0.0,44,0.00,,---,0.00,VWS V14.00,2013-02-09 10:00:00,
2013-02-09 03:01:00,26.1,7.2,0.00,West,260,0.0,0.0,44,0.00,,---,0.00,VWS V14.00,2013-02-09 10:01:00,
2013-02-09 03:04:00,25.9,7.0,0.00,West,260,0.0,0.0,44,0.00,,---,0.00,VWS V14.00,2013-02-09 10:04:00,
2013-02-09 03:05:00,25.9,7.0,0.00,West,260,0.0,0.0,44,0.00,,---,0.00,VWS V14.00,2013-02-09 10:05:00,
2013-02-09 03:06:00,25.9,7.0,0.00,West,260,0.0,0.0,44,0.00,,---,0.00,VWS V14.00,2013-02-09 10:06:00,
2013-02-09 03:10:00,25.7,6.8,0.00,West,260,0.0,0.0,44,0.00,,---,0.00,VWS V14.00,2013-02-09 10:10:00,
2013-02-09 03:11:00,25.7,6.8,0.00,WSW,253,0.0,0.0,44,0.00,,---,0.00,VWS V14.00,2013-02-09 10:11:00,
2013-02-09 03:15:00,25.5,6.7,0.00,WSW,252,0.0,0.0,44,0.00,,---,0.00,VWS V14.00,2013-02-09 10:15:00,
2013-02-09 03:16:00,25.5,6.7,0.00,West,260,0.0,0.0,44,0.00,,---,0.00,VWS V14.00,2013-02-09 10:16:00,
2013-02-09 03:20:00,25.3,6.5,0.00,West,260,0.0,0.0,44,0.00,,---,0.00,VWS V14.00,2013-02-09 10:20:00,
2013-02-09 03:21:00,25.3,6.5,0.00,West,260,0.0,0.0,44,0.00,,---,0.00,VWS V14.00,2013-02-09 10:21:00,
2013-02-09 03:25:00,25.3,6.5,0.00,West,260,0.0,0.0,44,0.00,,---,0.00,VWS V14.00,2013-02-09 10:25:00,
2013-02-09 03:26:00,25.3,6.5,0.00,West,260,0.0,0.0,44,0.00,,---,0.00,VWS V14.00,2013-02-09 10:26:00,
2013-02-09 03:30:00,25.2,6.3,0.00,West,260,0.0,0.0,44,0.00,,---,0.00,VWS V14.00,2013-02-09 10:30:00,
2013-02-09 03:31:00,25.2,6.8,0.00,West,260,0.0,0.0,45,0.00,,---,0.00,VWS V14.00,2013-02-09 10:31:00,
2013-02-09 03:32:00,25.2,6.8,0.00,West,260,0.0,0.0,45,0.00,,---,0.00,VWS V14.00,2013-02-09 10:32:00,
2013-02-09 03:35:00,25.0,6.7,0.00,West,260,0.0,0.0,45,0.00,,---,0.00,VWS V14.00,2013-02-09 10:35:00,
2013-02-09 03:36:00,25.0,6.7,0.00,West,260,0.0,0.0,45,0.00,,---,0.00,VWS V14.00,2013-02-09 10:36:00,
2013-02-09 03:37:00,25.0,6.7,0.00,West,260,0.0,0.0,45,0.00,,---,0.00,VWS V14.00,2013-02-09 10:37:00,
2013-02-09 03:40:00,25.0,6.7,0.00,West,260,0.0,0.0,45,0.00,,---,0.00,VWS V14.00,2013-02-09 10:40:00,
2013-02-09 03:41:00,25.0,6.7,0.00,West,260,0.0,0.0,45,0.00,,---,0.00,VWS V14.00,2013-02-09 10:41:00,
2013-02-09 03:42:00,24.8,6.5,0.00,West,260,0.0,0.0,45,0.00,,---,0.00,VWS V14.00,2013-02-09 10:42:00,
2013-02-09 03:45:00,24.8,6.5,0.00,West,260,0.0,0.0,45,0.00,,---,0.00,VWS V14.00,2013-02-09 10:45:00,
2013-02-09 03:46:00,24.8,6.5,0.00,West,260,0.0,0.0,45,0.00,,---,0.00,VWS V14.00,2013-02-09 10:46:00,
2013-02-09 03:47:00,24.8,6.5,0.00,West,260,0.0,0.0,45,0.00,,---,0.00,VWS V14.00,2013-02-09 10:47:00,
2013-02-09 03:50:00,24.8,6.5,0.00,West,260,0.0,0.0,45,0.00,,---,0.00,VWS V14.00,2013-02-09 10:50:00,
2013-02-09 03:51:00,24.6,6.3,0.00,West,260,0.0,0.0,45,0.00,,---,0.00,VWS V14.00,2013-02-09 10:51:00,
2013-02-09 03:52:00,24.6,6.3,0.00,West,260,0.0,0.0,45,0.00,,---,0.00,VWS V14.00,2013-02-09 10:52:00,
2013-02-09 03:55:00,24.6,6.3,0.00,WNW,293,0.0,0.0,45,0.00,,---,0.00,VWS V14.00,2013-02-09 10:55:00,
2013-02-09 03:56:00,24.6,6.3,0.00,SW,226,0.0,0.0,45,0.00,,---,0.00,VWS V14.00,2013-02-09 10:56:00,
2013-02-09 03:57:00,24.4,6.2,0.00,SW,226,0.0,0.0,45,0.00,,---,0.00,VWS V14.00,2013-02-09 10:57:00,
2013-02-09 04:00:00,24.4,6.2,0.00,SW,230,0.0,0.0,45,0.00,,---,0.00,VWS V14.00,2013-02-09 11:00:00,
2013-02-09 04:01:00,24.4,6.2,0.00,SW,229,0.0,0.0,45,0.00,,---,0.00,VWS V14.00,2013-02-09 11:01:00,
2013-02-09 04:02:00,24.4,6.2,0.00,SW,231,0.0,0.0,45,0.00,,---,0.00,VWS V14.00,2013-02-09 11:02:00,
2013-02-09 04:05:00,24.4,6.2,0.00,SW,230,0.0,0.0,45,0.00,,---,0.00,VWS V14.00,2013-02-09 11:05:00,
2013-02-09 04:06:00,24.4,6.2,0.00,SW,230,0.0,0.0,45,0.00,,---,0.00,VWS V14.00,2013-02-09 11:06:00,
2013-02-09 04:07:00,24.4,6.2,0.00,SW,230,0.0,0.0,45,0.00,,---,0.00,VWS V14.00,2013-02-09 11:07:00,
2013-02-09 04:08:00,24.4,6.2,0.00,SW,230,0.0,0.0,45,0.00,,---,0.00,VWS V14.00,2013-02-09 11:08:00,
2013-02-09 04:10:00,24.3,6.0,0.00,SW,229,0.0,0.0,45,0.00,,---,0.00,VWS V14.00,2013-02-09 11:10:00,
2013-02-09 04:11:00,24.3,6.0,0.00,SW,230,0.0,0.0,45,0.00,,---,0.00,VWS V14.00,2013-02-09 11:11:00,
2013-02-09 04:12:00,24.3,6.0,0.00,SW,225,0.0,0.0,45,0.00,,---,0.00,VWS V14.00,2013-02-09 11:12:00,
2013-02-09 04:13:00,24.3,6.0,0.00,SW,230,0.0,0.0,45,0.00,,---,0.00,VWS V14.00,2013-02-09 11:13:00,
2013-02-09 04:16:00,24.3,6.0,0.00,SW,229,0.0,0.0,45,0.00,,---,0.00,VWS V14.00,2013-02-09 11:16:00,
2013-02-09 04:18:00,24.3,6.0,0.00,SW,230,0.0,0.0,45,0.00,,---,0.00,VWS V14.00,2013-02-09 11:18:00,
2013-02-09 04:21:00,24.1,5.8,0.00,SW,230,0.0,0.0,45,0.00,,---,0.00,VWS V14.00,2013-02-09 11:21:00,
2013-02-09 04:23:00,24.1,5.8,0.00,SW,230,0.0,0.0,45,0.00,,---,0.00,VWS V14.00,2013-02-09 11:23:00,
2013-02-09 04:26:00,24.1,5.8,0.00,SW,226,0.0,0.0,45,0.00,,---,0.00,VWS V14.00,2013-02-09 11:26:00,
2013-02-09 04:28:00,24.1,5.8,0.00,SW,227,0.0,0.0,45,0.00,,---,0.00,VWS V14.00,2013-02-09 11:28:00,
2013-02-09 04:29:00,24.1,5.8,0.00,SW,231,0.0,0.0,45,0.00,,---,0.00,VWS V14.00,2013-02-09 11:29:00,
2013-02-09 04:31:00,23.9,5.7,0.00,SW,230,0.0,0.0,45,0.00,,---,0.00,VWS V14.00,2013-02-09 11:31:00,
2013-02-09 04:32:00,23.9,5.7,0.00,SW,231,0.0,0.0,45,0.00,,---,0.00,VWS V14.00,2013-02-09 11:32:00,
2013-02-09 04:33:00,23.9,5.7,0.00,SW,230,0.0,0.0,45,0.00,,---,0.00,VWS V14.00,2013-02-09 11:33:00,
2013-02-09 04:34:00,23.9,5.7,0.00,SW,224,0.0,0.0,45,0.00,,---,0.00,VWS V14.00,2013-02-09 11:34:00,
2013-02-09 04:36:00,23.9,5.7,0.00,SW,230,0.0,0.0,45,0.00,,---,0.00,VWS V14.00,2013-02-09 11:36:00,
2013-02-09 04:37:00,23.9,5.7,0.00,SW,230,0.0,0.0,45,0.00,,---,0.00,VWS V14.00,2013-02-09 11:37:00,
2013-02-09 04:38:00,23.9,5.7,0.00,SW,229,0.0,0.0,45,0.00,,---,0.00,VWS V14.00,2013-02-09 11:38:00,
2013-02-09 04:39:00,23.9,5.7,0.00,SW,230,0.0,0.0,45,0.00,,---,0.00,VWS V14.00,2013-02-09 11:39:00,
2013-02-09 04:41:00,23.9,5.7,0.00,SW,230,0.0,0.0,45,0.00,,---,0.00,VWS V14.00,2013-02-09 11:41:00,
2013-02-09 04:42:00,23.9,5.7,0.00,SW,224,0.0,0.0,45,0.00,,---,0.00,VWS V14.00,2013-02-09 11:42:00,
2013-02-09 04:43:00,23.9,5.7,0.00,SW,230,0.0,0.0,45,0.00,,---,0.00,VWS V14.00,2013-02-09 11:43:00,
2013-02-09 04:44:00,23.9,5.7,0.00,SW,230,0.0,0.0,45,0.00,,---,0.00,VWS V14.00,2013-02-09 11:44:00,
2013-02-09 04:46:00,23.9,5.7,0.00,SW,231,0.0,0.0,45,0.00,,---,0.00,VWS V14.00,2013-02-09 11:46:00,
2013-02-09 04:47:00,23.9,5.7,0.00,SW,230,0.0,0.0,45,0.00,,---,0.00,VWS V14.00,2013-02-09 11:47:00,
2013-02-09 04:48:00,23.9,5.7,0.00,SW,230,0.0,0.0,45,0.00,,---,0.00,VWS V14.00,2013-02-09 11:48:00,
2013-02-09 04:49:00,23.9,5.7,0.00,SW,231,0.0,0.0,45,0.00,,---,0.00,VWS V14.00,2013-02-09 11:49:00,
2013-02-09 04:51:00,23.9,5.7,0.00,SW,230,0.0,0.0,45,0.00,,---,0.00,VWS V14.00,2013-02-09 11:51:00,
2013-02-09 04:52:00,23.9,5.7,0.00,SW,231,0.0,0.0,45,0.00,,---,0.00,VWS V14.00,2013-02-09 11:52:00,
2013-02-09 04:53:00,23.9,5.7,0.00,SW,230,0.0,0.0,45,0.00,,---,0.00,VWS V14.00,2013-02-09 11:53:00,
2013-02-09 04:54:00,23.9,5.7,0.00,SW,230,0.0,0.0,45,0.00,,---,0.00,VWS V14.00,2013-02-09 11:54:00,
2013-02-09 04:56:00,23.9,5.7,0.00,SW,231,0.0,0.0,45,0.00,,---,0.00,VWS V14.00,2013-02-09 11:56:00,
2013-02-09 04:57:00,23.9,5.7,0.00,SW,230,0.0,0.0,45,0.00,,---,0.00,VWS V14.00,2013-02-09 11:57:00,
2013-02-09 04:58:00,23.9,5.7,0.00,SW,231,0.0,0.0,45,0.00,,---,0.00,VWS V14.00,2013-02-09 11:58:00,
2013-02-09 05:00:00,23.9,5.7,0.00,SW,222,0.0,0.0,45,0.00,,---,0.00,VWS V14.00,2013-02-09 12:00:00,
2013-02-09 05:01:00,23.7,5.5,0.00,SW,231,0.0,0.0,45,0.00,,---,0.00,VWS V14.00,2013-02-09 12:01:00,
2013-02-09 05:02:00,23.7,5.5,0.00,SW,222,0.0,0.0,45,0.00,,---,0.00,VWS V14.00,2013-02-09 12:02:00,
2013-02-09 05:03:00,23.7,5.5,0.00,SW,231,0.0,0.0,45,0.00,,---,0.00,VWS V14.00,2013-02-09 12:03:00,
2013-02-09 05:05:00,23.7,5.5,0.00,SW,230,0.0,0.0,45,0.00,,---,0.00,VWS V14.00,2013-02-09 12:05:00,
2013-02-09 05:06:00,23.7,5.5,0.00,SW,230,0.0,0.0,45,0.00,,---,0.00,VWS V14.00,2013-02-09 12:06:00,
2013-02-09 05:07:00,23.7,5.5,0.00,SW,222,0.0,0.0,45,0.00,,---,0.00,VWS V14.00,2013-02-09 12:07:00,
2013-02-09 05:08:00,23.7,5.5,0.00,SW,230,0.0,0.0,45,0.00,,---,0.00,VWS V14.00,2013-02-09 12:08:00,
2013-02-09 05:10:00,23.7,5.5,0.00,SW,230,0.0,0.0,45,0.00,,---,0.00,VWS V14.00,2013-02-09 12:10:00,
2013-02-09 05:11:00,23.7,5.5,0.00,WSW,258,2.2,2.2,45,0.00,,---,0.00,VWS V14.00,2013-02-09 12:11:00,
2013-02-09 05:12:00,23.7,5.5,0.00,WSW,247,0.0,0.0,45,0.00,,---,0.00,VWS V14.00,2013-02-09 12:12:00,
2013-02-09 05:14:00,23.7,5.5,0.00,WSW,246,0.0,0.0,45,0.00,,---,0.00,VWS V14.00,2013-02-09 12:14:00,
2013-02-09 05:15:00,23.7,5.5,0.00,WSW,246,0.0,0.0,45,0.00,,---,0.00,VWS V14.00,2013-02-09 12:15:00,
2013-02-09 05:16:00,23.7,5.5,0.00,WSW,246,0.0,0.0,45,0.00,,---,0.00,VWS V14.00,2013-02-09 12:16:00,
2013-02-09 05:17:00,23.7,5.5,0.00,SW,225,0.0,0.0,45,0.00,,---,0.00,VWS V14.00,2013-02-09 12:17:00,
2013-02-09 05:19:00,23.7,5.5,0.00,SW,224,0.0,0.0,45,0.00,,---,0.00,VWS V14.00,2013-02-09 12:19:00,
2013-02-09 05:20:00,23.7,5.5,0.00,SW,224,0.0,0.0,45,0.00,,---,0.00,VWS V14.00,2013-02-09 12:20:00,
2013-02-09 05:21:00,23.7,5.5,0.00,West,262,0.0,0.0,45,0.00,,---,0.00,VWS V14.00,2013-02-09 12:21:00,
2013-02-09 05:22:00,23.7,6.0,0.00,West,262,0.0,0.0,46,0.00,,---,0.00,VWS V14.00,2013-02-09 12:22:00,
2013-02-09 05:24:00,23.7,6.0,0.00,South,190,0.0,0.0,46,0.00,,---,0.00,VWS V14.00,2013-02-09 12:24:00,
2013-02-09 05:25:00,23.7,6.0,0.00,South,190,0.0,0.0,46,0.00,,---,0.00,VWS V14.00,2013-02-09 12:25:00,
2013-02-09 05:27:00,23.7,6.0,0.00,South,190,0.0,0.0,46,0.00,,---,0.00,VWS V14.00,2013-02-09 12:27:00,
2013-02-09 05:29:00,23.7,6.0,0.00,South,191,0.0,0.0,46,0.00,,---,0.00,VWS V14.00,2013-02-09 12:29:00,
2013-02-09 05:30:00,23.7,6.0,0.00,South,191,0.0,0.0,46,0.00,,---,0.00,VWS V14.00,2013-02-09 12:30:00,
2013-02-09 05:32:00,23.7,6.0,0.00,South,191,0.0,0.0,46,0.00,,---,0.00,VWS V14.00,2013-02-09 12:32:00,
2013-02-09 05:34:00,23.7,6.0,0.00,South,191,0.0,0.0,46,0.00,,---,0.00,VWS V14.00,2013-02-09 12:34:00,
2013-02-09 05:35:00,23.7,6.0,0.00,South,191,0.0,0.0,46,0.00,,---,0.00,VWS V14.00,2013-02-09 12:35:00,
2013-02-09 05:37:00,23.7,6.0,0.00,South,191,0.0,0.0,46,0.00,,---,0.00,VWS V14.00,2013-02-09 12:37:00,
2013-02-09 05:38:00,23.7,6.0,0.00,South,191,0.0,0.0,46,0.00,,---,0.00,VWS V14.00,2013-02-09 12:38:00,
2013-02-09 05:39:00,23.7,6.0,0.00,South,191,0.0,0.0,46,0.00,,---,0.00,VWS V14.00,2013-02-09 12:39:00,
2013-02-09 05:40:00,23.7,6.0,0.00,SSW,196,0.0,0.0,46,0.00,,---,0.00,VWS V14.00,2013-02-09 12:40:00,
2013-02-09 05:42:00,23.5,5.8,0.00,SSW,201,0.0,0.0,46,0.00,,---,0.00,VWS V14.00,2013-02-09 12:42:00,
2013-02-09 05:43:00,23.5,5.8,0.00,SSW,201,0.0,0.0,46,0.00,,---,0.00,VWS V14.00,2013-02-09 12:43:00,
2013-02-09 05:44:00,23.5,5.8,0.00,SSW,201,0.0,0.0,46,0.00,,---,0.00,VWS V14.00,2013-02-09 12:44:00,
2013-02-09 05:45:00,23.5,5.8,0.00,SSW,201,0.0,0.0,46,0.00,,---,0.00,VWS V14.00,2013-02-09 12:45:00,
2013-02-09 05:47:00,23.5,5.8,0.00,SSW,201,0.0,0.0,46,0.00,,---,0.00,VWS V14.00,2013-02-09 12:47:00,
2013-02-09 05:48:00,23.5,5.8,0.00,SSW,201,0.0,0.0,46,0.00,,---,0.00,VWS V14.00,2013-02-09 12:48:00,
2013-02-09 05:49:00,23.5,5.8,0.00,SSW,201,0.0,0.0,46,0.00,,---,0.00,VWS V14.00,2013-02-09 12:49:00,
2013-02-09 05:50:00,23.5,5.8,0.00,SSW,201,0.0,0.0,46,0.00,,---,0.00,VWS V14.00,2013-02-09 12:50:00,
2013-02-09 05:52:00,23.5,5.8,0.00,SSW,201,0.0,0.0,46,0.00,,---,0.00,VWS V14.00,2013-02-09 12:52:00,
2013-02-09 05:53:00,23.5,5.8,0.00,SSW,201,0.0,0.0,46,0.00,,---,0.00,VWS V14.00,2013-02-09 12:53:00,
2013-02-09 05:54:00,23.5,5.8,0.00,SSW,201,0.0,0.0,46,0.00,,---,0.00,VWS V14.00,2013-02-09 12:54:00,
2013-02-09 05:55:00,23.5,5.3,0.00,SSW,201,0.0,0.0,45,0.00,,---,0.00,VWS V14.00,2013-02-09 12:55:00,
2013-02-09 05:57:00,23.5,5.3,0.00,SSW,201,0.0,0.0,45,0.00,,---,0.00,VWS V14.00,2013-02-09 12:57:00,
2013-02-09 05:58:00,23.5,5.3,0.00,SSW,201,0.0,0.0,45,0.00,,---,0.00,VWS V14.00,2013-02-09 12:58:00,
2013-02-09 05:59:00,23.5,5.3,0.00,SSW,201,0.0,0.0,45,0.00,,---,0.00,VWS V14.00,2013-02-09 12:59:00,
2013-02-09 06:00:00,23.5,5.3,0.00,SSW,200,0.0,0.0,45,0.00,,---,0.00,VWS V14.00,2013-02-09 13:00:00,
2013-02-09 06:02:00,23.5,5.3,0.00,SSW,201,0.0,0.0,45,0.00,,---,0.00,VWS V14.00,2013-02-09 13:02:00,
2013-02-09 06:03:00,23.5,5.3,0.00,SSW,201,0.0,0.0,45,0.00,,---,0.00,VWS V14.00,2013-02-09 13:03:00,
2013-02-09 06:04:00,23.5,5.3,0.00,SSW,201,0.0,0.0,45,0.00,,---,0.00,VWS V14.00,2013-02-09 13:04:00,
2013-02-09 06:05:00,23.5,5.3,0.00,SSW,201,0.0,0.0,45,0.00,,---,0.00,VWS V14.00,2013-02-09 13:05:00,
2013-02-09 06:07:00,23.5,5.3,0.00,SSW,201,0.0,0.0,45,0.00,,---,0.00,VWS V14.00,2013-02-09 13:07:00,
2013-02-09 06:08:00,23.5,5.3,0.00,SSW,200,0.0,0.0,45,0.00,,---,0.00,VWS V14.00,2013-02-09 13:08:00,
2013-02-09 06:09:00,23.5,5.3,0.00,SE,140,3.1,4.9,45,0.00,,---,0.00,VWS V14.00,2013-02-09 13:09:00,
2013-02-09 06:11:00,23.5,5.3,0.00,ESE,110,0.0,0.0,45,0.00,,---,0.00,VWS V14.00,2013-02-09 13:11:00,
2013-02-09 06:12:00,23.5,5.3,0.00,ESE,110,0.0,0.0,45,0.00,,---,0.00,VWS V14.00,2013-02-09 13:12:00,
2013-02-09 06:13:00,23.5,5.3,0.00,East,85,2.2,2.7,45,0.00,,---,0.00,VWS V14.00,2013-02-09 13:13:00,
2013-02-09 06:15:00,23.5,5.3,0.00,East,88,0.0,0.0,45,0.00,,---,0.00,VWS V14.00,2013-02-09 13:15:00,
2013-02-09 06:16:00,23.5,5.3,0.00,East,87,0.0,0.0,45,0.00,,---,0.00,VWS V14.00,2013-02-09 13:16:00,
2013-02-09 06:17:00,23.5,5.3,0.00,East,87,0.0,0.0,45,0.00,,---,0.00,VWS V14.00,2013-02-09 13:17:00,
2013-02-09 06:18:00,23.4,5.2,0.00,East,87,0.0,0.0,45,0.00,,---,0.00,VWS V14.00,2013-02-09 13:18:00,
2013-02-09 06:19:00,23.4,5.2,0.00,East,90,0.0,4.0,45,0.00,,---,0.00,VWS V14.00,2013-02-09 13:19:00,
2013-02-09 06:21:00,23.4,5.2,0.00,East,87,0.0,0.0,45,0.00,,---,0.00,VWS V14.00,2013-02-09 13:21:00,
2013-02-09 06:22:00,23.4,5.2,0.00,East,90,0.0,0.0,45,0.00,,---,0.00,VWS V14.00,2013-02-09 13:22:00,
2013-02-09 06:23:00,23.4,5.2,0.00,East,89,0.0,0.0,45,0.00,,---,0.00,VWS V14.00,2013-02-09 13:23:00,
2013-02-09 06:25:00,23.4,5.2,0.00,East,89,0.0,0.0,45,0.00,,---,0.00,VWS V14.00,2013-02-09 13:25:00,
2013-02-09 06:26:00,23.4,5.2,0.00,East,90,0.0,0.0,45,0.00,,---,0.00,VWS V14.00,2013-02-09 13:26:00,
2013-02-09 06:27:00,23.4,5.2,0.00,East,96,0.0,0.0,45,0.00,,---,0.00,VWS V14.00,2013-02-09 13:27:00,
2013-02-09 06:28:00,23.4,5.2,0.00,East,95,0.0,0.0,45,0.00,,---,0.00,VWS V14.00,2013-02-09 13:28:00,
2013-02-09 06:30:00,23.4,5.2,0.00,SE,124,0.0,0.0,45,0.00,,---,0.00,VWS V14.00,2013-02-09 13:30:00,
2013-02-09 06:31:00,23.4,5.2,0.00,SE,127,0.0,0.0,45,0.00,,---,0.00,VWS V14.00,2013-02-09 13:31:00,
2013-02-09 06:32:00,23.4,5.2,0.00,SE,127,0.0,0.0,45,0.00,,---,0.00,VWS V14.00,2013-02-09 13:32:00,
2013-02-09 06:33:00,23.4,5.2,0.00,SE,126,0.0,0.0,45,0.00,,---,0.00,VWS V14.00,2013-02-09 13:33:00,
2013-02-09 06:35:00,23.4,5.2,0.00,SE,127,0.0,0.0,45,0.00,,---,0.00,VWS V14.00,2013-02-09 13:35:00,
2013-02-09 06:36:00,23.4,5.2,0.00,SE,127,0.0,0.0,45,0.00,,---,0.00,VWS V14.00,2013-02-09 13:36:00,
2013-02-09 06:37:00,23.4,5.2,0.00,SE,126,0.0,0.0,45,0.00,,---,0.00,VWS V14.00,2013-02-09 13:37:00,
2013-02-09 06:38:00,23.4,5.2,0.00,SE,127,0.0,0.0,45,0.00,,---,0.00,VWS V14.00,2013-02-09 13:38:00,
2013-02-09 06:41:00,23.4,5.2,0.00,ESE,121,2.2,2.2,45,0.00,,---,0.00,VWS V14.00,2013-02-09 13:41:00,
2013-02-09 06:42:00,23.4,5.2,0.00,ESE,116,0.0,0.0,45,0.00,,---,0.00,VWS V14.00,2013-02-09 13:42:00,
2013-02-09 06:43:00,23.4,5.2,0.00,ESE,120,0.0,0.0,45,0.00,,---,0.00,VWS V14.00,2013-02-09 13:43:00,
2013-02-09 06:46:00,23.2,5.0,0.00,SE,126,0.0,0.0,45,0.00,,---,0.00,VWS V14.00,2013-02-09 13:46:00,
2013-02-09 06:47:00,23.2,5.0,0.00,East,98,2.2,2.2,45,0.00,,---,0.00,VWS V14.00,2013-02-09 13:47:00,
2013-02-09 06:48:00,23.2,5.0,0.00,East,98,0.0,0.0,45,0.00,,---,0.00,VWS V14.00,2013-02-09 13:48:00,
2013-02-09 06:51:00,23.2,5.0,0.00,ESE,105,0.0,0.0,45,0.00,,---,0.00,VWS V14.00,2013-02-09 13:51:00,
2013-02-09 06:52:00,23.2,5.0,0.00,ESE,105,0.0,0.0,45,0.00,,---,0.00,VWS V14.00,2013-02-09 13:52:00,
2013-02-09 06:53:00,23.2,5.0,0.00,ESE,105,0.0,0.0,45,0.00,,---,0.00,VWS V14.00,2013-02-09 13:53:00,
2013-02-09 06:56:00,23.2,5.0,0.00,ESE,104,0.0,0.0,45,0.00,,---,0.00,VWS V14.00,2013-02-09 13:56:00,
2013-02-09 06:57:00,23.2,5.0,0.00,ESE,105,0.0,0.0,45,0.00,,---,0.00,VWS V14.00,2013-02-09 13:57:00,
2013-02-09 06:58:00,23.2,5.0,0.00,East,101,0.0,0.0,45,0.00,,---,0.00,VWS V14.00,2013-02-09 13:58:00,
2013-02-09 07:01:00,23.2,5.0,0.00,ESE,105,0.0,0.0,45,0.00,,---,0.00,VWS V14.00,2013-02-09 14:01:00,
2013-02-09 07:02:00,23.2,5.0,0.00,ESE,102,0.0,0.0,45,0.00,,---,0.00,VWS V14.00,2013-02-09 14:02:00,
2013-02-09 07:03:00,23.2,5.0,0.00,ESE,105,0.0,0.0,45,0.00,,---,0.00,VWS V14.00,2013-02-09 14:03:00,
2013-02-09 07:06:00,23.0,4.8,0.00,ESE,104,0.0,0.0,45,0.00,,---,0.00,VWS V14.00,2013-02-09 14:06:00,
2013-02-09 07:07:00,23.0,4.8,0.00,ESE,105,0.0,0.0,45,0.00,,---,0.00,VWS V14.00,2013-02-09 14:07:00,
2013-02-09 07:08:00,23.0,4.8,0.00,ESE,105,0.0,0.0,45,0.00,,---,0.00,VWS V14.00,2013-02-09 14:08:00,
2013-02-09 07:11:00,23.0,4.8,0.00,ESE,105,0.0,0.0,45,0.00,,---,0.00,VWS V14.00,2013-02-09 14:11:00,
2013-02-09 07:12:00,23.0,4.8,0.00,ESE,105,0.0,0.0,45,0.00,,---,0.00,VWS V14.00,2013-02-09 14:12:00,
2013-02-09 07:13:00,23.0,4.8,0.00,ESE,104,0.0,0.0,45,0.00,,---,0.00,VWS V14.00,2013-02-09 14:13:00,
2013-02-09 07:16:00,23.0,4.8,0.00,ESE,105,0.0,0.0,45,0.00,,---,0.00,VWS V14.00,2013-02-09 14:16:00,
2013-02-09 07:18:00,23.0,4.8,0.00,ESE,104,0.0,0.0,45,0.00,,---,0.00,VWS V14.00,2013-02-09 14:18:00,
2013-02-09 07:19:00,23.0,4.8,0.00,ESE,105,0.0,0.0,45,0.00,,---,0.00,VWS V14.00,2013-02-09 14:19:00,
2013-02-09 07:21:00,23.0,4.8,0.00,ESE,104,0.0,0.0,45,0.00,,---,0.00,VWS V14.00,2013-02-09 14:21:00,
2013-02-09 07:23:00,23.0,4.8,0.00,East,101,0.0,0.0,45,0.00,,---,0.00,VWS V14.00,2013-02-09 14:23:00,
2013-02-09 07:24:00,22.8,4.7,0.00,ESE,105,0.0,0.0,45,0.00,,---,0.00,VWS V14.00,2013-02-09 14:24:00,
2013-02-09 07:27:00,22.8,4.7,0.00,ESE,104,0.0,0.0,45,0.00,,---,0.00,VWS V14.00,2013-02-09 14:27:00,
2013-02-09 07:28:00,22.8,4.7,0.00,ESE,105,0.0,0.0,45,0.00,,---,0.00,VWS V14.00,2013-02-09 14:28:00,
2013-02-09 07:29:00,22.8,4.7,0.00,ESE,105,0.0,0.0,45,0.00,,---,0.00,VWS V14.00,2013-02-09 14:29:00,
2013-02-09 07:32:00,22.8,4.7,0.00,ESE,105,0.0,0.0,45,0.00,,---,0.00,VWS V14.00,2013-02-09 14:32:00,
2013-02-09 07:33:00,22.8,4.7,0.00,ESE,104,0.0,0.0,45,0.00,,---,0.00,VWS V14.00,2013-02-09 14:33:00,
2013-02-09 07:34:00,22.8,4.7,0.00,ESE,102,0.0,0.0,45,0.00,,---,0.00,VWS V14.00,2013-02-09 14:34:00,
2013-02-09 07:37:00,22.8,4.7,0.00,ESE,107,0.0,0.0,45,0.00,,---,0.00,VWS V14.00,2013-02-09 14:37:00,
2013-02-09 07:38:00,22.8,4.7,0.00,ESE,105,0.0,0.0,45,0.00,,---,0.00,VWS V14.00,2013-02-09 14:38:00,
2013-02-09 07:39:00,22.8,4.7,0.00,ESE,108,0.0,0.0,45,0.00,,---,0.00,VWS V14.00,2013-02-09 14:39:00,
2013-02-09 07:42:00,22.8,4.7,0.00,SSW,212,0.0,0.0,45,0.00,,---,0.00,VWS V14.00,2013-02-09 14:42:00,
2013-02-09 07:43:00,22.8,4.7,0.00,WSW,255,0.0,0.0,45,0.00,,---,0.00,VWS V14.00,2013-02-09 14:43:00,
2013-02-09 07:44:00,22.6,4.5,0.00,WSW,255,0.0,0.0,45,0.00,,---,0.00,VWS V14.00,2013-02-09 14:44:00,
2013-02-09 07:47:00,22.6,4.5,0.00,WSW,255,0.0,0.0,45,0.00,,---,0.00,VWS V14.00,2013-02-09 14:47:00,
2013-02-09 07:48:00,22.6,4.5,0.00,WSW,255,0.0,0.0,45,0.00,,---,0.00,VWS V14.00,2013-02-09 14:48:00,
2013-02-09 07:49:00,22.6,4.5,0.00,WSW,255,0.0,0.0,45,0.00,,---,0.00,VWS V14.00,2013-02-09 14:49:00,
2013-02-09 07:52:00,22.6,4.5,0.00,WSW,255,0.0,0.0,45,0.00,,---,0.00,VWS V14.00,2013-02-09 14:52:00,
2013-02-09 07:53:00,22.6,4.5,0.00,WSW,255,0.0,0.0,45,0.00,,---,0.00,VWS V14.00,2013-02-09 14:53:00,
2013-02-09 07:54:00,22.6,4.5,0.00,WSW,246,0.0,0.0,45,0.00,,---,0.00,VWS V14.00,2013-02-09 14:54:00,
2013-02-09 07:57:00,22.6,4.5,0.00,WSW,255,0.0,0.0,45,0.00,,---,0.00,VWS V14.00,2013-02-09 14:57:00,
2013-02-09 07:58:00,22.5,4.3,0.00,WSW,250,0.0,0.0,45,0.00,,---,0.00,VWS V14.00,2013-02-09 14:58:00,
2013-02-09 07:59:00,22.5,4.3,0.00,WSW,258,0.0,0.0,45,0.00,,---,0.00,VWS V14.00,2013-02-09 14:59:00,
2013-02-09 08:02:00,22.5,4.3,0.00,East,84,0.0,0.0,45,0.00,,---,0.00,VWS V14.00,2013-02-09 15:02:00,
2013-02-09 08:03:00,22.5,4.3,0.00,East,83,0.0,0.0,45,0.00,,---,0.00,VWS V14.00,2013-02-09 15:03:00,
2013-02-09 08:04:00,22.5,4.3,0.00,East,82,0.0,0.0,45,0.00,,---,0.00,VWS V14.00,2013-02-09 15:04:00,
2013-02-09 08:08:00,22.5,4.3,0.00,East,84,0.0,0.0,45,0.00,,---,0.00,VWS V14.00,2013-02-09 15:08:00,
2013-02-09 08:09:00,22.5,4.3,0.00,East,81,0.0,0.0,45,0.00,,---,0.00,VWS V14.00,2013-02-09 15:09:00,
2013-02-09 08:13:00,22.5,4.3,0.00,SSW,199,0.0,0.0,45,0.00,,---,0.00,VWS V14.00,2013-02-09 15:13:00,
2013-02-09 08:14:00,22.5,4.3,0.00,SSW,199,0.0,0.0,45,0.00,,---,0.00,VWS V14.00,2013-02-09 15:14:00,
2013-02-09 08:18:00,22.3,4.7,0.00,SSW,199,0.0,0.0,46,0.00,,---,0.00,VWS V14.00,2013-02-09 15:18:00,
2013-02-09 08:19:00,22.3,4.7,0.00,SSW,199,0.0,0.0,46,0.00,,---,0.00,VWS V14.00,2013-02-09 15:19:00,
2013-02-09 08:23:00,22.3,4.7,0.00,SW,224,0.0,0.0,46,0.00,,---,0.00,VWS V14.00,2013-02-09 15:23:00,
2013-02-09 08:24:00,22.3,4.7,0.00,SW,222,0.0,0.0,46,0.00,,---,0.00,VWS V14.00,2013-02-09 15:24:00,
2013-02-09 08:28:00,22.5,4.8,0.00,SW,219,0.0,0.0,46,0.00,,---,0.00,VWS V14.00,2013-02-09 15:28:00,
2013-02-09 08:29:00,22.5,4.8,0.00,SW,223,0.0,0.0,46,0.00,,---,0.00,VWS V14.00,2013-02-09 15:29:00,
2013-02-09 08:30:00,22.5,4.8,0.00,SW,221,0.0,0.0,46,0.00,,---,0.00,VWS V14.00,2013-02-09 15:30:00,
2013-02-09 08:33:00,22.5,4.8,0.00,SW,219,0.0,0.0,46,0.00,,---,0.00,VWS V14.00,2013-02-09 15:33:00,
2013-02-09 08:34:00,22.5,4.8,0.00,SW,222,0.0,0.0,46,0.00,,---,0.00,VWS V14.00,2013-02-09 15:34:00,
2013-02-09 08:35:00,22.5,4.8,0.00,SW,221,0.0,0.0,46,0.00,,---,0.00,VWS V14.00,2013-02-09 15:35:00,
2013-02-09 08:38:00,22.5,4.8,0.00,SW,227,0.0,0.0,46,0.00,,---,0.00,VWS V14.00,2013-02-09 15:38:00,
2013-02-09 08:39:00,22.5,4.8,0.00,SW,226,0.0,0.0,46,0.00,,---,0.00,VWS V14.00,2013-02-09 15:39:00,
2013-02-09 08:40:00,22.5,4.8,0.00,SW,225,0.0,0.0,46,0.00,,---,0.00,VWS V14.00,2013-02-09 15:40:00,
2013-02-09 08:43:00,22.5,4.8,0.00,SW,226,0.0,0.0,46,0.00,,---,0.00,VWS V14.00,2013-02-09 15:43:00,
2013-02-09 08:44:00,22.5,4.8,0.00,SW,226,0.0,0.0,46,0.00,,---,0.00,VWS V14.00,2013-02-09 15:44:00,
2013-02-09 08:46:00,22.6,5.0,0.00,WNW,297,0.0,0.0,46,0.00,,---,0.00,VWS V14.00,2013-02-09 15:46:00,
2013-02-09 08:48:00,22.6,5.0,0.00,SE,145,0.0,0.0,46,0.00,,---,0.00,VWS V14.00,2013-02-09 15:48:00,
2013-02-09 08:49:00,22.6,5.0,0.00,ESE,109,0.0,3.1,46,0.00,,---,0.00,VWS V14.00,2013-02-09 15:49:00,
2013-02-09 08:50:00,22.6,5.0,0.00,ESE,110,0.0,3.1,46,0.00,,---,0.00,VWS V14.00,2013-02-09 15:50:00,
2013-02-09 08:51:00,22.6,5.0,0.00,ESE,111,0.0,0.0,46,0.00,,---,0.00,VWS V14.00,2013-02-09 15:51:00,
2013-02-09 08:53:00,22.8,5.2,0.00,East,98,3.6,3.6,46,0.00,,---,0.00,VWS V14.00,2013-02-09 15:53:00,
2013-02-09 08:54:00,22.8,5.2,0.00,ESE,115,0.0,2.7,46,0.00,,---,0.00,VWS V14.00,2013-02-09 15:54:00,
2013-02-09 08:55:00,22.8,5.2,0.00,ESE,117,0.0,2.7,46,0.00,,---,0.00,VWS V14.00,2013-02-09 15:55:00,
2013-02-09 08:56:00,22.8,5.2,0.00,ESE,111,0.0,0.0,46,0.00,,---,0.00,VWS V14.00,2013-02-09 15:56:00,
2013-02-09 08:58:00,22.8,4.7,0.00,ENE,67,2.2,3.6,45,0.00,,---,0.00,VWS V14.00,2013-02-09 15:58:00,
2013-02-09 08:59:00,23.0,4.8,0.00,SE,136,4.9,4.9,45,0.00,,---,0.00,VWS V14.00,2013-02-09 15:59:00,
2013-02-09 09:00:00,23.0,4.8,0.00,SE,145,5.8,5.8,45,0.00,,---,0.00,VWS V14.00,2013-02-09 16:00:00,
2013-02-09 09:01:00,23.0,4.8,0.00,East,81,3.1,3.1,45,0.00,,---,0.00,VWS V14.00,2013-02-09 16:01:00,
2013-02-09 09:03:00,23.2,5.0,0.00,East,82,0.0,0.0,45,0.00,,---,0.00,VWS V14.00,2013-02-09 16:03:00,
2013-02-09 09:04:00,23.2,4.5,0.00,ESE,122,3.6,3.6,44,0.00,,---,0.00,VWS V14.00,2013-02-09 16:04:00,
2013-02-09 09:05:00,23.2,4.5,0.00,ESE,121,2.2,2.2,44,0.00,,---,0.00,VWS V14.00,2013-02-09 16:05:00,
2013-02-09 09:06:00,23.2,4.5,0.00,West,265,0.0,5.8,44,0.00,,---,0.00,VWS V14.00,2013-02-09 16:06:00,
2013-02-09 09:08:00,23.4,4.7,0.00,East,85,2.7,2.7,44,0.00,,---,0.00,VWS V14.00,2013-02-09 16:08:00,
2013-02-09 09:09:00,23.4,4.7,0.00,ENE,62,3.6,5.8,44,0.00,,---,0.00,VWS V14.00,2013-02-09 16:09:00,
2013-02-09 09:10:00,23.5,4.8,0.00,East,84,3.6,5.8,44,0.00,,---,0.00,VWS V14.00,2013-02-09 16:10:00,
2013-02-09 09:11:00,23.5,4.8,0.00,East,100,0.0,0.0,44,0.00,,---,0.00,VWS V14.00,2013-02-09 16:11:00,
2013-02-09 09:13:00,23.5,4.8,0.00,SE,135,3.6,3.6,44,0.00,,---,0.00,VWS V14.00,2013-02-09 16:13:00,
2013-02-09 09:14:00,23.7,5.0,0.00,ESE,123,4.0,4.5,44,0.00,,---,0.00,VWS V14.00,2013-02-09 16:14:00,
2013-02-09 09:15:00,23.7,5.0,0.00,NW,314,2.7,2.7,44,0.00,,---,0.00,VWS V14.00,2013-02-09 16:15:00,
2013-02-09 09:16:00,23.7,5.0,0.00,ESE,106,2.2,4.5,44,0.00,,---,0.00,VWS V14.00,2013-02-09 16:16:00,
2013-02-09 09:18:00,23.9,5.2,0.00,SE,143,6.3,6.3,44,0.00,,---,0.00,VWS V14.00,2013-02-09 16:18:00,
2013-02-09 09:19:00,23.9,5.2,0.00,SE,128,2.2,5.4,44,0.00,,---,0.00,VWS V14.00,2013-02-09 16:19:00,
2013-02-09 09:20:00,24.1,5.3,0.00,SE,128,0.0,2.2,44,0.00,,---,0.00,VWS V14.00,2013-02-09 16:20:00,
2013-02-09 09:21:00,24.1,5.3,0.00,SE,134,4.0,5.8,44,0.00,,---,0.00,VWS V14.00,2013-02-09 16:21:00,
2013-02-09 09:23:00,24.3,5.5,0.00,East,87,3.6,4.0,44,0.00,,---,0.00,VWS V14.00,2013-02-09 16:23:00,
2013-02-09 09:25:00,24.4,5.7,0.00,NNE,30,0.0,2.2,44,0.00,,---,0.00,VWS V14.00,2013-02-09 16:25:00,
2013-02-09 09:26:00,24.4,5.7,0.00,ESE,115,3.6,4.0,44,0.00,,---,0.00,VWS V14.00,2013-02-09 16:26:00,
2013-02-09 09:28:00,24.6,5.8,0.00,SE,124,4.0,4.9,44,0.00,,---,0.00,VWS V14.00,2013-02-09 16:28:00,
2013-02-09 09:30:00,24.6,5.8,0.00,SE,144,4.5,4.5,44,0.00,,---,0.00,VWS V14.00,2013-02-09 16:30:00,
2013-02-09 09:32:00,24.8,6.0,0.00,ESE,116,0.0,0.0,44,0.00,,---,0.00,VWS V14.00,2013-02-09 16:32:00,
2013-02-09 09:33:00,25.0,5.7,0.00,ESE,123,4.0,4.9,43,0.00,,---,0.00,VWS V14.00,2013-02-09 16:33:00,
2013-02-09 09:35:00,25.2,6.3,0.00,South,187,2.2,2.2,44,0.00,,---,0.00,VWS V14.00,2013-02-09 16:35:00,
2013-02-09 09:37:00,25.3,6.5,0.00,ENE,61,3.1,3.1,44,0.00,,---,0.00,VWS V14.00,2013-02-09 16:37:00,
2013-02-09 09:39:00,25.3,6.5,0.00,ENE,74,2.7,2.7,44,0.00,,---,0.00,VWS V14.00,2013-02-09 16:39:00,
2013-02-09 09:40:00,25.5,6.7,0.00,SSW,192,0.0,4.0,44,0.00,,---,0.00,VWS V14.00,2013-02-09 16:40:00,
2013-02-09 09:42:00,25.7,6.8,0.00,SE,131,4.0,4.0,44,0.00,,---,0.00,VWS V14.00,2013-02-09 16:42:00,
2013-02-09 09:44:00,25.9,6.5,0.00,East,99,4.0,5.4,43,0.00,,---,0.00,VWS V14.00,2013-02-09 16:44:00,
2013-02-09 09:45:00,26.1,6.6,0.00,East,87,4.0,4.0,43,0.00,,---,0.00,VWS V14.00,2013-02-09 16:45:00,
2013-02-09 09:47:00,26.1,6.6,0.00,East,89,4.0,4.0,43,0.00,,---,0.00,VWS V14.00,2013-02-09 16:47:00,
2013-02-09 09:49:00,26.2,6.8,0.00,ESE,111,0.0,0.0,43,0.00,,---,0.00,VWS V14.00,2013-02-09 16:49:00,
2013-02-09 09:50:00,26.4,7.0,0.00,ESE,111,0.0,0.0,43,0.00,,---,0.00,VWS V14.00,2013-02-09 16:50:00,
2013-02-09 09:52:00,26.6,7.1,0.00,ESE,106,3.6,4.9,43,0.00,,---,0.00,VWS V14.00,2013-02-09 16:52:00,
2013-02-09 09:54:00,26.8,7.3,0.00,SE,144,3.1,5.8,43,0.00,,---,0.00,VWS V14.00,2013-02-09 16:54:00,
2013-02-09 09:55:00,26.8,7.3,0.00,ENE,74,0.0,2.7,43,0.00,,---,0.00,VWS V14.00,2013-02-09 16:55:00,
2013-02-09 09:57:00,27.0,7.5,0.00,East,101,5.4,5.4,43,0.00,,---,0.00,VWS V14.00,2013-02-09 16:57:00,
2013-02-09 09:59:00,27.1,7.6,0.00,South,189,0.0,2.7,43,0.00,,---,0.00,VWS V14.00,2013-02-09 16:59:00,
2013-02-09 10:00:00,27.1,7.6,0.00,SE,143,2.2,2.2,43,0.00,,---,0.00,VWS V14.00,2013-02-09 17:00:00,
2013-02-09 10:02:00,27.3,7.8,0.00,ESE,119,4.0,4.0,43,0.00,,---,0.00,VWS V14.00,2013-02-09 17:02:00,
2013-02-09 10:04:00,27.5,7.9,0.00,SSE,157,4.0,4.0,43,0.00,,---,0.00,VWS V14.00,2013-02-09 17:04:00,
2013-02-09 10:05:00,27.7,8.1,0.00,SSW,194,0.0,5.8,43,0.00,,---,0.00,VWS V14.00,2013-02-09 17:05:00,
2013-02-09 10:06:00,27.7,8.1,0.00,SSW,194,0.0,5.8,43,0.00,,---,0.00,VWS V14.00,2013-02-09 17:06:00,
2013-02-09 10:07:00,27.7,8.1,0.00,SE,126,4.9,4.9,43,0.00,,---,0.00,VWS V14.00,2013-02-09 17:07:00,
2013-02-09 10:10:00,27.9,8.3,0.00,SSE,147,4.0,4.0,43,0.00,,---,0.00,VWS V14.00,2013-02-09 17:10:00,
2013-02-09 10:11:00,27.9,7.8,0.00,SE,131,4.0,4.0,42,0.00,,---,0.00,VWS V14.00,2013-02-09 17:11:00,
2013-02-09 10:12:00,28.2,8.1,0.00,SE,144,4.0,5.4,42,0.00,,---,0.00,VWS V14.00,2013-02-09 17:12:00,
2013-02-09 10:15:00,28.4,8.8,0.00,ESE,108,0.0,3.1,43,0.00,,---,0.00,VWS V14.00,2013-02-09 17:15:00,
2013-02-09 10:16:00,28.6,8.4,0.00,ESE,105,3.1,8.7,42,0.00,,---,0.00,VWS V14.00,2013-02-09 17:16:00,
2013-02-09 10:18:00,28.6,8.4,0.00,NE,46,2.2,3.6,42,0.00,,---,0.00,VWS V14.00,2013-02-09 17:18:00,
2013-02-09 10:20:00,28.8,8.6,0.00,ENE,75,4.9,5.4,42,0.00,,---,0.00,VWS V14.00,2013-02-09 17:20:00,
2013-02-09 10:21:00,28.9,8.7,0.00,East,79,0.0,5.4,42,0.00,,---,0.00,VWS V14.00,2013-02-09 17:21:00,
2013-02-09 10:23:00,29.1,8.9,0.00,ESE,118,3.6,5.4,42,0.00,,---,0.00,VWS V14.00,2013-02-09 17:23:00,
2013-02-09 10:25:00,29.5,9.2,0.00,West,269,4.0,4.0,42,0.00,,---,0.00,VWS V14.00,2013-02-09 17:25:00,
2013-02-09 10:26:00,29.5,9.2,0.00,West,269,0.0,4.0,42,0.00,,---,0.00,VWS V14.00,2013-02-09 17:26:00,
2013-02-09 10:28:00,29.7,9.4,0.00,SW,234,2.7,2.7,42,0.00,,---,0.00,VWS V14.00,2013-02-09 17:28:00,
2013-02-09 10:30:00,30.7,9.8,0.00,SSW,194,0.0,4.0,41,0.00,,---,0.00,VWS V14.00,2013-02-09 17:30:00,
2013-02-09 10:31:00,30.9,10.0,0.00,SSE,152,0.0,0.0,41,0.00,,---,0.00,VWS V14.00,2013-02-09 17:31:00,
2013-02-09 10:33:00,30.7,9.8,0.00,SE,134,3.1,3.1,41,0.00,,---,0.00,VWS V14.00,2013-02-09 17:33:00,
2013-02-09 10:35:00,30.6,9.7,0.00,ESE,120,3.1,3.1,41,0.00,,---,0.00,VWS V14.00,2013-02-09 17:35:00,
2013-02-09 10:36:00,30.6,9.7,0.00,ESE,114,4.0,4.0,41,0.00,,---,0.00,VWS V14.00,2013-02-09 17:36:00,
2013-02-09 10:38:00,30.7,9.8,0.00,ESE,112,3.1,3.1,41,0.00,,---,0.00,VWS V14.00,2013-02-09 17:38:00,
2013-02-09 10:40:00,31.3,10.3,0.00,SE,129,2.7,3.1,41,0.00,,---,0.00,VWS V14.00,2013-02-09 17:40:00,
2013-02-09 10:41:00,31.3,10.3,0.00,ESE,118,2.7,3.1,41,0.00,,---,0.00,VWS V14.00,2013-02-09 17:41:00,
2013-02-09 10:42:00,31.3,10.3,0.00,SSE,155,2.7,3.1,41,0.00,,---,0.00,VWS V14.00,2013-02-09 17:42:00,
2013-02-09 10:44:00,31.3,10.3,0.00,SSW,198,0.0,3.6,41,0.00,,---,0.00,VWS V14.00,2013-02-09 17:44:00,
2013-02-09 10:45:00,31.3,10.3,0.00,SE,127,2.7,3.6,41,0.00,,---,0.00,VWS V14.00,2013-02-09 17:45:00,
2013-02-09 10:46:00,31.3,10.3,0.00,SE,141,3.1,3.1,41,0.00,,---,0.00,VWS V14.00,2013-02-09 17:46:00,
2013-02-09 10:47:00,31.3,10.3,0.00,SE,140,3.1,3.1,41,0.00,,---,0.00,VWS V14.00,2013-02-09 17:47:00,
2013-02-09 10:49:00,31.5,10.5,0.00,SE,125,3.6,5.8,41,0.00,,---,0.00,VWS V14.00,2013-02-09 17:49:00,
2013-02-09 10:50:00,31.5,10.5,0.00,SSE,154,4.9,4.9,41,0.00,,---,0.00,VWS V14.00,2013-02-09 17:50:00,
2013-02-09 10:51:00,31.5,10.5,0.00,SSE,154,4.9,4.9,41,0.00,,---,0.00,VWS V14.00,2013-02-09 17:51:00,
2013-02-09 10:52:00,31.5,10.5,0.00,SSW,206,0.0,0.0,41,0.00,,---,0.00,VWS V14.00,2013-02-09 17:52:00,
2013-02-09 10:54:00,31.5,10.5,0.00,ESE,123,3.1,3.1,41,0.00,,---,0.00,VWS V14.00,2013-02-09 17:54:00,
2013-02-09 10:56:00,31.5,10.5,0.00,South,191,0.0,4.0,41,0.00,,---,0.00,VWS V14.00,2013-02-09 17:56:00,
2013-02-09 10:57:00,31.5,10.5,0.00,SW,215,0.0,0.0,41,0.00,,---,0.00,VWS V14.00,2013-02-09 17:57:00,
2013-02-09 10:59:00,31.5,10.5,0.00,SE,126,3.6,4.9,41,0.00,,---,0.00,VWS V14.00,2013-02-09 17:59:00,
2013-02-09 11:01:00,31.5,10.5,0.00,SE,128,0.0,0.0,41,0.00,,---,0.00,VWS V14.00,2013-02-09 18:01:00,
2013-02-09 11:02:00,31.3,10.3,0.00,South,184,2.2,2.2,41,0.00,,---,0.00,VWS V14.00,2013-02-09 18:02:00,
2013-02-09 11:04:00,31.3,10.3,0.00,SSE,152,0.0,3.1,41,0.00,,---,0.00,VWS V14.00,2013-02-09 18:04:00,
2013-02-09 11:06:00,31.3,10.3,0.00,SE,133,4.9,4.9,41,0.00,,---,0.00,VWS V14.00,2013-02-09 18:06:00,
2013-02-09 11:07:00,31.3,10.3,0.00,SSE,155,0.0,2.2,41,0.00,,---,0.00,VWS V14.00,2013-02-09 18:07:00,
2013-02-09 11:09:00,31.3,10.3,0.00,SW,217,0.0,0.0,41,0.00,,---,0.00,VWS V14.00,2013-02-09 18:09:00,
2013-02-09 11:11:00,31.3,10.3,0.00,SSW,202,0.0,0.0,41,0.00,,---,0.00,VWS V14.00,2013-02-09 18:11:00,
2013-02-09 11:12:00,31.3,10.3,0.00,SSW,202,0.0,0.0,41,0.00,,---,0.00,VWS V14.00,2013-02-09 18:12:00,
2013-02-09 11:14:00,31.3,10.3,0.00,East,99,4.0,4.0,41,0.00,,---,0.00,VWS V14.00,2013-02-09 18:14:00,
2013-02-09 11:16:00,31.5,10.5,0.00,East,92,0.0,0.0,41,0.00,,---,0.00,VWS V14.00,2013-02-09 18:16:00,
2013-02-09 11:17:00,31.5,10.5,0.00,ENE,74,0.0,2.7,41,0.00,,---,0.00,VWS V14.00,2013-02-09 18:17:00,
2013-02-09 11:20:00,31.5,10.5,0.00,SSW,194,0.0,0.0,41,0.00,,---,0.00,VWS V14.00,2013-02-09 18:20:00,
2013-02-09 11:21:00,31.5,10.5,0.00,South,174,0.0,0.0,41,0.00,,---,0.00,VWS V14.00,2013-02-09 18:21:00,
2013-02-09 11:22:00,31.5,10.5,0.00,SSE,163,0.0,0.0,41,0.00,,---,0.00,VWS V14.00,2013-02-09 18:22:00,
2013-02-09 11:25:00,31.5,10.5,0.00,East,86,0.0,3.1,41,0.00,,---,0.00,VWS V14.00,2013-02-09 18:25:00,
2013-02-09 11:26:00,31.6,10.6,0.00,ESE,106,0.0,2.7,41,0.00,,---,0.00,VWS V14.00,2013-02-09 18:26:00,
2013-02-09 11:28:00,31.6,10.6,0.00,South,186,2.7,2.7,41,0.00,,---,0.00,VWS V14.00,2013-02-09 18:28:00,
2013-02-09 11:30:00,31.6,10.6,0.00,SSW,211,0.0,2.2,41,0.00,,---,0.00,VWS V14.00,2013-02-09 18:30:00,
2013-02-09 11:31:00,31.6,10.6,0.00,West,267,2.7,2.7,41,0.00,,---,0.00,VWS V14.00,2013-02-09 18:31:00,
2013-02-09 11:33:00,31.6,10.6,0.00,WSW,241,0.0,0.0,41,0.00,,---,0.00,VWS V14.00,2013-02-09 18:33:00,
2013-02-09 11:35:00,31.6,10.6,0.00,SE,129,0.0,0.0,41,0.00,,---,0.00,VWS V14.00,2013-02-09 18:35:00,
2013-02-09 11:36:00,31.6,10.6,0.00,SE,131,0.0,0.0,41,0.00,,---,0.00,VWS V14.00,2013-02-09 18:36:00,
2013-02-09 11:37:00,31.8,10.8,0.00,SE,141,3.6,3.6,41,0.00,,---,0.00,VWS V14.00,2013-02-09 18:37:00,
2013-02-09 11:38:00,31.8,10.8,0.00,SE,144,2.7,2.7,41,0.00,,---,0.00,VWS V14.00,2013-02-09 18:38:00,
2013-02-09 11:40:00,31.8,11.4,0.00,SSE,153,0.0,0.0,42,0.00,,---,0.00,VWS V14.00,2013-02-09 18:40:00,
2013-02-09 11:41:00,31.8,11.4,0.00,SSE,167,2.2,3.6,42,0.00,,---,0.00,VWS V14.00,2013-02-09 18:41:00,
2013-02-09 11:42:00,31.8,11.4,0.00,SE,146,3.6,3.6,42,0.00,,---,0.00,VWS V14.00,2013-02-09 18:42:00,
2013-02-09 11:43:00,31.8,11.4,0.00,WNW,283,3.1,3.1,42,0.00,,---,0.00,VWS V14.00,2013-02-09 18:43:00,
2013-02-09 11:45:00,32.0,11.5,0.00,SSE,163,2.7,2.7,42,0.00,,---,0.00,VWS V14.00,2013-02-09 18:45:00,
2013-02-09 11:46:00,32.0,11.5,0.00,South,171,0.0,2.2,42,0.00,,---,0.00,VWS V14.00,2013-02-09 18:46:00,
2013-02-09 11:47:00,32.0,11.5,0.00,SSW,206,2.7,2.7,42,0.00,,---,0.00,VWS V14.00,2013-02-09 18:47:00,
2013-02-09 11:48:00,32.0,11.5,0.00,SW,216,0.0,0.0,42,0.00,,---,0.00,VWS V14.00,2013-02-09 18:48:00,
2013-02-09 11:50:00,32.0,11.5,0.00,SE,142,3.1,3.1,42,0.00,,---,0.00,VWS V14.00,2013-02-09 18:50:00,
2013-02-09 11:51:00,32.2,11.7,0.00,South,175,0.0,3.1,42,0.00,,---,0.00,VWS V14.00,2013-02-09 18:51:00,
2013-02-09 11:52:00,32.2,11.7,0.00,SW,224,0.0,0.0,42,0.00,,---,0.00,VWS V14.00,2013-02-09 18:52:00,
2013-02-09 11:53:00,32.2,11.7,0.00,SSE,151,4.0,4.0,42,0.00,,---,0.00,VWS V14.00,2013-02-09 18:53:00,
2013-02-09 11:55:00,32.2,11.7,0.00,SE,138,4.0,4.0,42,0.00,,---,0.00,VWS V14.00,2013-02-09 18:55:00,
2013-02-09 11:56:00,32.2,11.7,0.00,SE,141,4.9,4.9,42,0.00,,---,0.00,VWS V14.00,2013-02-09 18:56:00,
2013-02-09 11:57:00,32.2,11.7,0.00,ESE,118,2.7,4.9,42,0.00,,---,0.00,VWS V14.00,2013-02-09 18:57:00,
2013-02-09 11:58:00,32.2,11.7,0.00,SE,124,5.8,5.8,42,0.00,,---,0.00,VWS V14.00,2013-02-09 18:58:00,
2013-02-09 12:01:00,32.2,11.7,0.00,ESE,117,2.2,4.0,42,0.00,,---,0.00,VWS V14.00,2013-02-09 19:01:00,
2013-02-09 12:02:00,32.4,11.3,0.00,SE,133,2.2,2.2,41,0.00,,---,0.00,VWS V14.00,2013-02-09 19:02:00,
2013-02-09 12:03:00,32.4,11.3,0.00,ESE,119,2.7,5.8,41,0.00,,---,0.00,VWS V14.00,2013-02-09 19:03:00,
2013-02-09 12:06:00,32.4,11.3,0.00,SSW,207,0.0,0.0,41,0.00,,---,0.00,VWS V14.00,2013-02-09 19:06:00,
2013-02-09 12:07:00,32.4,11.3,0.00,SSW,198,4.0,5.4,41,0.00,,---,0.00,VWS V14.00,2013-02-09 19:07:00,
2013-02-09 12:08:00,32.4,11.3,0.00,East,99,3.1,3.6,41,0.00,,---,0.00,VWS V14.00,2013-02-09 19:08:00,
2013-02-09 12:11:00,32.4,11.9,0.00,ESE,118,0.0,0.0,42,0.00,,---,0.00,VWS V14.00,2013-02-09 19:11:00,
2013-02-09 12:12:00,32.4,11.9,0.00,ESE,115,4.0,4.0,42,0.00,,---,0.00,VWS V14.00,2013-02-09 19:12:00,
2013-02-09 12:13:00,32.4,11.9,0.00,SSE,164,0.0,0.0,42,0.00,,---,0.00,VWS V14.00,2013-02-09 19:13:00,
2013-02-09 12:16:00,32.4,11.9,0.00,SW,225,0.0,0.0,42,0.00,,---,0.00,VWS V14.00,2013-02-09 19:16:00,
2013-02-09 12:17:00,32.4,11.9,0.00,ESE,112,4.0,4.0,42,0.00,,---,0.00,VWS V14.00,2013-02-09 19:17:00,
2013-02-09 12:18:00,32.4,11.9,0.00,ESE,112,0.0,0.0,42,0.00,,---,0.00,VWS V14.00,2013-02-09 19:18:00,
2013-02-09 12:21:00,32.2,11.7,0.00,East,94,3.6,4.9,42,0.00,,---,0.00,VWS V14.00,2013-02-09 19:21:00,
2013-02-09 12:22:00,32.2,11.7,0.00,East,82,3.1,3.1,42,0.00,,---,0.00,VWS V14.00,2013-02-09 19:22:00,
2013-02-09 12:23:00,32.2,11.7,0.00,ESE,110,2.7,3.1,42,0.00,,---,0.00,VWS V14.00,2013-02-09 19:23:00,
2013-02-09 12:26:00,32.2,11.7,0.00,SSE,154,0.0,0.0,42,0.00,,---,0.00,VWS V14.00,2013-02-09 19:26:00,
2013-02-09 12:27:00,32.0,11.5,0.00,SSE,156,0.0,0.0,42,0.00,,---,0.00,VWS V14.00,2013-02-09 19:27:00,
2013-02-09 12:28:00,32.0,11.5,0.00,SSE,157,0.0,0.0,42,0.00,,---,0.00,VWS V14.00,2013-02-09 19:28:00,
2013-02-09 12:31:00,32.0,11.5,0.00,South,176,2.7,2.7,42,0.00,,---,0.00,VWS V14.00,2013-02-09 19:31:00,
2013-02-09 12:32:00,32.0,11.0,0.00,SSW,199,0.0,0.0,41,0.00,,---,0.00,VWS V14.00,2013-02-09 19:32:00,
2013-02-09 12:33:00,31.8,10.8,0.00,SSW,197,0.0,0.0,41,0.00,,---,0.00,VWS V14.00,2013-02-09 19:33:00,
2013-02-09 12:36:00,31.8,10.8,0.00,SW,215,0.0,0.0,41,0.00,,---,0.00,VWS V14.00,2013-02-09 19:36:00,
2013-02-09 12:37:00,31.6,10.6,0.00,South,185,2.2,2.7,41,0.00,,---,0.00,VWS V14.00,2013-02-09 19:37:00,
2013-02-09 12:38:00,31.6,10.6,0.00,South,184,0.0,0.0,41,0.00,,---,0.00,VWS V14.00,2013-02-09 19:38:00,
2013-02-09 12:41:00,31.5,10.5,0.00,SSE,167,0.0,0.0,41,0.00,,---,0.00,VWS V14.00,2013-02-09 19:41:00,
2013-02-09 12:42:00,31.5,10.5,0.00,SSW,200,0.0,0.0,41,0.00,,---,0.00,VWS V14.00,2013-02-09 19:42:00,
2013-02-09 12:43:00,31.5,10.5,0.00,SW,228,3.1,3.1,41,0.00,,---,0.00,VWS V14.00,2013-02-09 19:43:00,
2013-02-09 12:46:00,31.3,10.3,0.00,SE,136,0.0,0.0,41,0.00,,---,0.00,VWS V14.00,2013-02-09 19:46:00,
2013-02-09 12:47:00,31.3,10.3,0.00,SE,136,0.0,0.0,41,0.00,,---,0.00,VWS V14.00,2013-02-09 19:47:00,
2013-02-09 12:48:00,31.3,10.3,0.00,ESE,110,3.1,3.1,41,0.00,,---,0.00,VWS V14.00,2013-02-09 19:48:00,
2013-02-09 12:49:00,31.3,10.3,0.00,ESE,110,3.1,3.1,41,0.00,,---,0.00,VWS V14.00,2013-02-09 19:49:00,
2013-02-09 12:51:00,31.1,10.2,0.00,East,96,2.7,6.3,41,0.00,,---,0.00,VWS V14.00,2013-02-09 19:51:00,
2013-02-09 12:52:00,31.1,10.2,0.00,East,98,2.2,3.1,41,0.00,,---,0.00,VWS V14.00,2013-02-09 19:52:00,
2013-02-09 12:53:00,31.1,10.2,0.00,East,101,2.7,2.7,41,0.00,,---,0.00,VWS V14.00,2013-02-09 19:53:00,
2013-02-09 12:54:00,31.1,10.2,0.00,East,98,0.0,2.2,41,0.00,,---,0.00,VWS V14.00,2013-02-09 19:54:00,
2013-02-09 12:56:00,31.1,10.2,0.00,South,185,0.0,0.0,41,0.00,,---,0.00,VWS V14.00,2013-02-09 19:56:00,
2013-02-09 12:57:00,30.9,10.0,0.00,ESE,109,4.0,4.0,41,0.00,,---,0.00,VWS V14.00,2013-02-09 19:57:00,
2013-02-09 12:58:00,30.9,10.0,0.00,ESE,111,0.0,4.0,41,0.00,,---,0.00,VWS V14.00,2013-02-09 19:58:00,
2013-02-09 12:59:00,30.9,10.0,0.00,ESE,109,0.0,4.0,41,0.00,,---,0.00,VWS V14.00,2013-02-09 19:59:00,
2013-02-09 13:01:00,30.7,9.8,0.00,ESE,107,0.0,0.0,41,0.00,,---,0.00,VWS V14.00,2013-02-09 20:01:00,
2013-02-09 13:02:00,30.7,9.8,0.00,SE,130,3.1,3.1,41,0.00,,---,0.00,VWS V14.00,2013-02-09 20:02:00,
2013-02-09 13:03:00,30.7,9.8,0.00,ESE,112,2.7,3.6,41,0.00,,---,0.00,VWS V14.00,2013-02-09 20:03:00,
2013-02-09 13:04:00,30.7,9.8,0.00,ESE,112,2.7,2.7,41,0.00,,---,0.00,VWS V14.00,2013-02-09 20:04:00,
2013-02-09 13:07:00,30.6,9.7,0.00,ESE,102,3.6,3.6,41,0.00,,---,0.00,VWS V14.00,2013-02-09 20:07:00,
2013-02-09 13:08:00,30.6,9.7,0.00,ESE,102,4.0,4.0,41,0.00,,---,0.00,VWS V14.00,2013-02-09 20:08:00,
2013-02-09 13:09:00,30.6,9.7,0.00,East,91,3.6,4.0,41,0.00,,---,0.00,VWS V14.00,2013-02-09 20:09:00,
2013-02-09 13:12:00,30.4,9.5,0.00,ESE,115,3.1,3.1,41,0.00,,---,0.00,VWS V14.00,2013-02-09 20:12:00,
2013-02-09 13:13:00,30.4,9.5,0.00,SE,136,3.6,6.3,41,0.00,,---,0.00,VWS V14.00,2013-02-09 20:13:00,
2013-02-09 13:14:00,30.2,9.9,0.00,East,80,5.8,8.3,42,0.00,,---,0.00,VWS V14.00,2013-02-09 20:14:00,
2013-02-09 13:17:00,30.0,9.7,0.00,ENE,73,6.3,6.3,42,0.00,,---,0.00,VWS V14.00,2013-02-09 20:17:00,
2013-02-09 13:18:00,30.0,9.7,0.00,East,92,8.3,8.3,42,0.00,,---,0.00,VWS V14.00,2013-02-09 20:18:00,
2013-02-09 13:19:00,30.0,9.7,0.00,NE,47,4.9,8.3,42,0.00,,---,0.00,VWS V14.00,2013-02-09 20:19:00,
2013-02-09 13:22:00,29.7,9.4,0.00,East,101,3.6,5.4,42,0.00,,---,0.00,VWS V14.00,2013-02-09 20:22:00,
2013-02-09 13:23:00,29.7,9.4,0.00,SE,137,4.0,5.4,42,0.00,,---,0.00,VWS V14.00,2013-02-09 20:23:00,
2013-02-09 13:24:00,29.7,9.4,0.00,SE,133,4.0,4.9,42,0.00,,---,0.00,VWS V14.00,2013-02-09 20:24:00,
2013-02-09 13:27:00,29.5,9.2,0.00,ESE,111,8.3,8.3,42,0.00,,---,0.00,VWS V14.00,2013-02-09 20:27:00,
2013-02-09 13:28:00,29.5,9.2,0.00,ESE,120,5.4,8.3,42,0.00,,---,0.00,VWS V14.00,2013-02-09 20:28:00,
2013-02-09 13:29:00,29.3,9.6,0.00,ESE,102,5.8,6.3,43,0.00,,---,0.00,VWS V14.00,2013-02-09 20:29:00,
2013-02-09 13:32:00,28.9,9.3,0.00,ENE,62,8.7,11.0,43,0.00,,---,0.00,VWS V14.00,2013-02-09 20:32:00,
2013-02-09 13:33:00,28.9,9.3,0.00,ESE,117,8.1,8.3,43,0.00,,---,0.00,VWS V14.00,2013-02-09 20:33:00,
2013-02-09 13:34:00,28.9,9.3,0.00,ESE,114,6.3,6.3,43,0.00,,---,0.00,VWS V14.00,2013-02-09 20:34:00,
2013-02-09 13:37:00,28.6,8.9,0.00,ENE,63,11.0,11.0,43,0.00,,---,0.00,VWS V14.00,2013-02-09 20:37:00,
2013-02-09 13:38:00,28.6,8.9,0.00,SE,145,6.3,6.3,43,0.00,,---,0.00,VWS V14.00,2013-02-09 20:38:00,
2013-02-09 13:39:00,28.4,9.3,0.00,ESE,117,4.0,6.3,44,0.00,,---,0.00,VWS V14.00,2013-02-09 20:39:00,
2013-02-09 13:42:00,28.2,9.1,0.00,East,96,2.7,7.6,44,0.00,,---,0.00,VWS V14.00,2013-02-09 20:42:00,
2013-02-09 13:43:00,28.2,9.1,0.00,SE,130,4.9,4.9,44,0.00,,---,0.00,VWS V14.00,2013-02-09 20:43:00,
2013-02-09 13:44:00,28.0,8.9,0.00,East,79,5.4,5.4,44,0.00,,---,0.00,VWS V14.00,2013-02-09 20:44:00,
2013-02-09 13:45:00,28.0,8.9,0.00,SE,124,5.8,5.8,44,0.00,,---,0.00,VWS V14.00,2013-02-09 20:45:00,
2013-02-09 13:47:00,27.9,8.8,0.00,NE,44,7.6,7.6,44,0.00,,---,0.00,VWS V14.00,2013-02-09 20:47:00,
2013-02-09 13:48:00,27.9,8.8,0.00,ESE,115,2.7,3.1,44,0.00,,---,0.00,VWS V14.00,2013-02-09 20:48:00,
2013-02-09 13:49:00,27.9,8.8,0.00,East,80,4.0,6.3,44,0.00,,---,0.00,VWS V14.00,2013-02-09 20:49:00,
2013-02-09 13:50:00,27.9,8.8,0.00,East,80,4.0,4.0,44,0.00,,---,0.00,VWS V14.00,2013-02-09 20:50:00,
2013-02-09 13:52:00,27.9,8.8,0.00,ESE,105,5.4,5.4,44,0.00,,---,0.00,VWS V14.00,2013-02-09 20:52:00,
2013-02-09 13:53:00,27.9,8.8,0.00,ESE,112,3.1,8.1,44,0.00,,---,0.00,VWS V14.00,2013-02-09 20:53:00,
2013-02-09 13:55:00,27.9,8.8,0.00,East,83,8.1,8.1,44,0.00,,---,0.00,VWS V14.00,2013-02-09 20:55:00,
2013-02-09 13:57:00,27.7,8.6,0.00,ESE,103,8.3,10.5,44,0.00,,---,0.00,VWS V14.00,2013-02-09 20:57:00,
2013-02-09 13:58:00,27.7,8.6,0.00,ESE,120,5.8,8.7,44,0.00,,---,0.00,VWS V14.00,2013-02-09 20:58:00,
2013-02-09 14:00:00,27.7,8.6,0.00,SE,127,4.0,8.1,44,0.00,,---,0.00,VWS V14.00,2013-02-09 21:00:00,
2013-02-09 14:03:00,27.5,9.0,0.00,SSE,160,4.0,5.8,45,0.00,,---,0.00,VWS V14.00,2013-02-09 21:03:00,
2013-02-09 14:05:00,27.5,9.0,0.00,ESE,108,4.9,4.9,45,0.00,,---,0.00,VWS V14.00,2013-02-09 21:05:00,
2013-02-09 14:08:00,27.3,8.8,0.00,ESE,106,3.1,5.8,45,0.00,,---,0.00,VWS V14.00,2013-02-09 21:08:00,
2013-02-09 14:10:00,27.3,8.8,0.00,ESE,105,4.9,4.9,45,0.00,,---,0.00,VWS V14.00,2013-02-09 21:10:00,
2013-02-09 14:13:00,27.5,9.4,0.00,SE,138,5.4,5.4,46,0.00,,---,0.00,VWS V14.00,2013-02-09 21:13:00,
2013-02-09 14:15:00,27.7,9.6,0.00,East,100,3.6,5.8,46,0.00,,---,0.00,VWS V14.00,2013-02-09 21:15:00,
2013-02-09 14:16:00,27.7,9.1,0.00,SSW,195,8.1,8.1,45,0.00,,---,0.00,VWS V14.00,2013-02-09 21:16:00,
2013-02-09 14:18:00,27.9,9.3,0.00,ENE,71,4.0,5.4,45,0.00,,---,0.00,VWS V14.00,2013-02-09 21:18:00,
2013-02-09 14:20:00,27.9,9.3,0.00,East,89,3.6,4.0,45,0.00,,---,0.00,VWS V14.00,2013-02-09 21:20:00,
2013-02-09 14:21:00,27.9,9.3,0.00,SE,134,4.0,4.0,45,0.00,,---,0.00,VWS V14.00,2013-02-09 21:21:00,
2013-02-09 14:23:00,28.0,8.9,0.00,SSE,166,2.2,2.2,44,0.00,,---,0.00,VWS V14.00,2013-02-09 21:23:00,
2013-02-09 14:25:00,28.2,9.1,0.00,East,85,5.8,5.8,44,0.00,,---,0.00,VWS V14.00,2013-02-09 21:25:00,
2013-02-09 14:26:00,28.2,9.1,0.00,SE,133,7.6,7.6,44,0.00,,---,0.00,VWS V14.00,2013-02-09 21:26:00,
2013-02-09 14:28:00,28.4,9.3,0.00,ESE,113,7.6,7.6,44,0.00,,---,0.00,VWS V14.00,2013-02-09 21:28:00,
2013-02-09 14:29:00,28.6,8.9,0.00,ESE,122,3.6,7.6,43,0.00,,---,0.00,VWS V14.00,2013-02-09 21:29:00,
2013-02-09 14:30:00,28.6,8.9,0.00,ESE,122,3.6,5.8,43,0.00,,---,0.00,VWS V14.00,2013-02-09 21:30:00,
2013-02-09 14:31:00,28.6,8.9,0.00,ESE,123,4.9,6.3,43,0.00,,---,0.00,VWS V14.00,2013-02-09 21:31:00,
2013-02-09 14:33:00,28.8,9.1,0.00,East,99,5.4,5.4,43,0.00,,---,0.00,VWS V14.00,2013-02-09 21:33:00,
2013-02-09 14:34:00,28.9,9.3,0.00,East,101,4.9,4.9,43,0.00,,---,0.00,VWS V14.00,2013-02-09 21:34:00,
2013-02-09 14:35:00,28.9,9.3,0.00,ESE,112,4.9,5.4,43,0.00,,---,0.00,VWS V14.00,2013-02-09 21:35:00,
2013-02-09 14:37:00,29.1,9.4,0.00,SE,138,4.0,6.3,43,0.00,,---,0.00,VWS V14.00,2013-02-09 21:37:00,
2013-02-09 14:38:00,29.3,9.6,0.00,ESE,103,0.0,0.0,43,0.00,,---,0.00,VWS V14.00,2013-02-09 21:38:00,
2013-02-09 14:39:00,29.3,9.6,0.00,East,101,0.0,0.0,43,0.00,,---,0.00,VWS V14.00,2013-02-09 21:39:00,
2013-02-09 14:40:00,29.5,9.8,0.00,NE,50,0.0,4.9,43,0.00,,---,0.00,VWS V14.00,2013-02-09 21:40:00,
2013-02-09 14:42:00,29.5,9.2,0.00,WNW,287,0.0,0.0,42,0.00,,---,0.00,VWS V14.00,2013-02-09 21:42:00,
2013-02-09 14:43:00,29.7,9.9,0.00,East,94,2.7,2.7,43,0.00,,---,0.00,VWS V14.00,2013-02-09 21:43:00,
2013-02-09 14:44:00,29.8,10.1,0.00,SE,131,2.2,2.2,43,0.00,,---,0.00,VWS V14.00,2013-02-09 21:44:00,
2013-02-09 14:46:00,30.0,10.2,0.00,SW,223,0.0,0.0,43,0.00,,---,0.00,VWS V14.00,2013-02-09 21:46:00,
2013-02-09 14:47:00,30.0,10.8,0.00,WSW,251,3.6,3.6,44,0.00,,---,0.00,VWS V14.00,2013-02-09 21:47:00,
2013-02-09 14:48:00,30.0,10.8,0.00,West,278,2.7,2.7,44,0.00,,---,0.00,VWS V14.00,2013-02-09 21:48:00,
2013-02-09 14:49:00,30.2,10.9,0.00,SSE,163,2.7,2.7,44,0.00,,---,0.00,VWS V14.00,2013-02-09 21:49:00,
2013-02-09 14:51:00,30.2,10.9,0.00,WSW,237,0.0,0.0,44,0.00,,---,0.00,VWS V14.00,2013-02-09 21:51:00,
2013-02-09 14:52:00,30.2,10.9,0.00,WNW,284,0.0,3.1,44,0.00,,---,0.00,VWS V14.00,2013-02-09 21:52:00,
2013-02-09 14:53:00,30.4,10.6,0.00,ESE,119,2.7,3.6,43,0.00,,---,0.00,VWS V14.00,2013-02-09 21:53:00,
2013-02-09 14:54:00,30.4,10.6,0.00,ESE,119,0.0,0.0,43,0.00,,---,0.00,VWS V14.00,2013-02-09 21:54:00,
2013-02-09 14:56:00,30.4,11.1,0.00,SE,135,3.6,3.6,44,0.00,,---,0.00,VWS V14.00,2013-02-09 21:56:00,
2013-02-09 14:57:00,30.4,11.1,0.00,ESE,116,2.7,5.4,44,0.00,,---,0.00,VWS V14.00,2013-02-09 21:57:00,
2013-02-09 14:58:00,30.6,11.2,0.00,ESE,112,2.7,5.8,44,0.00,,---,0.00,VWS V14.00,2013-02-09 21:58:00,
2013-02-09 14:59:00,30.6,11.2,0.00,SE,140,3.1,3.1,44,0.00,,---,0.00,VWS V14.00,2013-02-09 21:59:00,
2013-02-09 15:01:00,30.6,11.2,0.00,SSW,195,0.0,0.0,44,0.00,,---,0.00,VWS V14.00,2013-02-09 22:01:00,
2013-02-09 15:02:00,30.6,11.2,0.00,South,185,0.0,0.0,44,0.00,,---,0.00,VWS V14.00,2013-02-09 22:02:00,
2013-02-09 15:03:00,30.6,11.2,0.00,SSW,199,0.0,2.2,44,0.00,,---,0.00,VWS V14.00,2013-02-09 22:03:00,
2013-02-09 15:04:00,30.6,11.2,0.00,ESE,122,4.0,4.0,44,0.00,,---,0.00,VWS V14.00,2013-02-09 22:04:00,
2013-02-09 15:06:00,30.4,11.1,0.00,SSE,168,3.1,3.1,44,0.00,,---,0.00,VWS V14.00,2013-02-09 22:06:00,
2013-02-09 15:07:00,30.2,11.4,0.00,SE,140,2.7,4.0,45,0.00,,---,0.00,VWS V14.00,2013-02-09 22:07:00,
2013-02-09 15:08:00,30.2,11.4,0.00,SE,140,3.1,4.0,45,0.00,,---,0.00,VWS V14.00,2013-02-09 22:08:00,
2013-02-09 15:09:00,30.2,11.4,0.00,West,280,3.6,3.6,45,0.00,,---,0.00,VWS V14.00,2013-02-09 22:09:00,
2013-02-09 15:11:00,30.0,11.3,0.00,SE,141,0.0,0.0,45,0.00,,---,0.00,VWS V14.00,2013-02-09 22:11:00,
2013-02-09 15:12:00,30.0,11.3,0.00,SE,133,0.0,0.0,45,0.00,,---,0.00,VWS V14.00,2013-02-09 22:12:00,
2013-02-09 15:14:00,30.0,11.3,0.00,SE,132,2.7,3.1,45,0.00,,---,0.00,VWS V14.00,2013-02-09 22:14:00,
2013-02-09 15:16:00,29.8,11.1,0.00,SE,126,2.7,2.7,45,0.00,,---,0.00,VWS V14.00,2013-02-09 22:16:00,
2013-02-09 15:18:00,29.8,11.1,0.00,SE,144,3.6,3.6,45,0.00,,---,0.00,VWS V14.00,2013-02-09 22:18:00,
2013-02-09 15:19:00,29.8,11.1,0.00,SE,136,0.0,3.1,45,0.00,,---,0.00,VWS V14.00,2013-02-09 22:19:00,
2013-02-09 15:21:00,29.7,10.9,0.00,ESE,114,3.1,3.1,45,0.00,,---,0.00,VWS V14.00,2013-02-09 22:21:00,
2013-02-09 15:23:00,29.7,10.9,0.00,SE,139,3.1,3.1,45,0.00,,---,0.00,VWS V14.00,2013-02-09 22:23:00,
2013-02-09 15:24:00,29.7,10.9,0.00,SE,133,3.1,3.1,45,0.00,,---,0.00,VWS V14.00,2013-02-09 22:24:00,
2013-02-09 15:26:00,29.7,10.9,0.00,SSE,166,0.0,0.0,45,0.00,,---,0.00,VWS V14.00,2013-02-09 22:26:00,
2013-02-09 15:28:00,29.7,11.4,0.00,SSE,154,0.0,2.2,46,0.00,,---,0.00,VWS V14.00,2013-02-09 22:28:00,
2013-02-09 15:29:00,29.5,11.3,0.00,SSE,150,2.7,2.7,46,0.00,,---,0.00,VWS V14.00,2013-02-09 22:29:00,
2013-02-09 15:30:00,29.5,11.3,0.00,SSE,150,0.0,2.7,46,0.00,,---,0.00,VWS V14.00,2013-02-09 22:30:00,
2013-02-09 15:31:00,29.5,11.3,0.00,SSE,148,0.0,2.7,46,0.00,,---,0.00,VWS V14.00,2013-02-09 22:31:00,
2013-02-09 15:33:00,29.5,11.3,0.00,South,180,0.0,0.0,46,0.00,,---,0.00,VWS V14.00,2013-02-09 22:33:00,
2013-02-09 15:34:00,29.5,11.3,0.00,South,180,0.0,0.0,46,0.00,,---,0.00,VWS V14.00,2013-02-09 22:34:00,
2013-02-09 15:35:00,29.5,11.3,0.00,SE,141,3.1,3.1,46,0.00,,---,0.00,VWS V14.00,2013-02-09 22:35:00,
2013-02-09 15:36:00,29.5,11.3,0.00,SE,141,2.7,3.1,46,0.00,,---,0.00,VWS V14.00,2013-02-09 22:36:00,
2013-02-09 15:38:00,29.5,11.3,0.00,WSW,254,0.0,3.1,46,0.00,,---,0.00,VWS V14.00,2013-02-09 22:38:00,
2013-02-09 15:39:00,29.5,11.3,0.00,WSW,254,0.0,0.0,46,0.00,,---,0.00,VWS V14.00,2013-02-09 22:39:00,
2013-02-09 15:40:00,29.5,11.3,0.00,WSW,254,0.0,0.0,46,0.00,,---,0.00,VWS V14.00,2013-02-09 22:40:00,
2013-02-09 15:41:00,29.5,11.3,0.00,SSW,205,0.0,0.0,46,0.00,,---,0.00,VWS V14.00,2013-02-09 22:41:00,
2013-02-09 15:43:00,29.3,11.1,0.00,SSW,207,0.0,0.0,46,0.00,,---,0.00,VWS V14.00,2013-02-09 22:43:00,
2013-02-09 15:44:00,29.3,11.1,0.00,West,269,0.0,0.0,46,0.00,,---,0.00,VWS V14.00,2013-02-09 22:44:00,
2013-02-09 15:45:00,29.3,11.1,0.00,West,265,0.0,0.0,46,0.00,,---,0.00,VWS V14.00,2013-02-09 22:45:00,
2013-02-09 15:46:00,29.3,11.1,0.00,SE,139,0.0,0.0,46,0.00,,---,0.00,VWS V14.00,2013-02-09 22:46:00,
2013-02-09 15:48:00,29.3,11.6,0.00,SSW,205,0.0,0.0,47,0.00,,---,0.00,VWS V14.00,2013-02-09 22:48:00,
2013-02-09 15:49:00,29.3,11.6,0.00,ESE,116,3.6,3.6,47,0.00,,---,0.00,VWS V14.00,2013-02-09 22:49:00,
2013-02-09 15:50:00,29.3,11.6,0.00,SSW,212,2.2,3.1,47,0.00,,---,0.00,VWS V14.00,2013-02-09 22:50:00,
2013-02-09 15:51:00,29.3,11.6,0.00,South,175,0.0,2.7,47,0.00,,---,0.00,VWS V14.00,2013-02-09 22:51:00,
2013-02-09 15:53:00,29.1,11.4,0.00,SW,221,0.0,0.0,47,0.00,,---,0.00,VWS V14.00,2013-02-09 22:53:00,
2013-02-09 15:54:00,29.1,11.4,0.00,SW,215,0.0,0.0,47,0.00,,---,0.00,VWS V14.00,2013-02-09 22:54:00,
2013-02-09 15:55:00,29.1,11.4,0.00,South,187,0.0,0.0,47,0.00,,---,0.00,VWS V14.00,2013-02-09 22:55:00,
2013-02-09 15:56:00,29.1,11.4,0.00,SE,141,2.7,2.7,47,0.00,,---,0.00,VWS V14.00,2013-02-09 22:56:00,
2013-02-09 15:59:00,29.1,11.4,0.00,ESE,114,0.0,3.6,47,0.00,,---,0.00,VWS V14.00,2013-02-09 22:59:00,
2013-02-09 16:00:00,29.1,11.4,0.00,ENE,72,0.0,0.0,47,0.00,,---,0.00,VWS V14.00,2013-02-09 23:00:00,
2013-02-09 16:01:00,29.1,11.4,0.00,ESE,112,4.0,4.0,47,0.00,,---,0.00,VWS V14.00,2013-02-09 23:01:00,
2013-02-09 16:04:00,29.1,11.9,0.00,ESE,106,0.0,0.0,48,0.00,,---,0.00,VWS V14.00,2013-02-09 23:04:00,
2013-02-09 16:05:00,29.1,11.9,0.00,ESE,107,0.0,2.7,48,0.00,,---,0.00,VWS V14.00,2013-02-09 23:05:00,
2013-02-09 16:07:00,29.1,11.9,0.00,South,185,2.2,2.2,48,0.00,,---,0.00,VWS V14.00,2013-02-09 23:07:00,
2013-02-09 16:09:00,28.9,11.7,0.00,SW,218,0.0,0.0,48,0.00,,---,0.00,VWS V14.00,2013-02-09 23:09:00,
2013-02-09 16:10:00,28.9,11.2,0.00,ESE,118,3.1,4.0,47,0.00,,---,0.00,VWS V14.00,2013-02-09 23:10:00,
2013-02-09 16:11:00,28.9,11.2,0.00,ESE,118,0.0,2.2,47,0.00,,---,0.00,VWS V14.00,2013-02-09 23:11:00,
2013-02-09 16:14:00,28.9,11.2,0.00,ESE,119,2.7,2.7,47,0.00,,---,0.00,VWS V14.00,2013-02-09 23:14:00,
2013-02-09 16:15:00,28.8,11.1,0.00,ESE,119,0.0,0.0,47,0.00,,---,0.00,VWS V14.00,2013-02-09 23:15:00,
2013-02-09 16:16:00,28.8,11.1,0.00,ESE,119,0.0,0.0,47,0.00,,---,0.00,VWS V14.00,2013-02-09 23:16:00,
2013-02-09 16:19:00,28.8,11.1,0.00,ESE,119,0.0,0.0,47,0.00,,---,0.00,VWS V14.00,2013-02-09 23:19:00,
2013-02-09 16:20:00,28.6,10.9,0.00,ESE,119,0.0,0.0,47,0.00,,---,0.00,VWS V14.00,2013-02-09 23:20:00,
2013-02-09 16:21:00,28.6,10.9,0.00,SSW,201,0.0,0.0,47,0.00,,---,0.00,VWS V14.00,2013-02-09 23:21:00,
2013-02-09 16:24:00,28.6,10.9,0.00,SSW,209,0.0,0.0,47,0.00,,---,0.00,VWS V14.00,2013-02-09 23:24:00,
2013-02-09 16:25:00,28.6,10.9,0.00,SSW,209,0.0,0.0,47,0.00,,---,0.00,VWS V14.00,2013-02-09 23:25:00,
2013-02-09 16:27:00,28.6,10.9,0.00,SSW,204,0.0,0.0,47,0.00,,---,0.00,VWS V14.00,2013-02-09 23:27:00,
2013-02-09 16:29:00,28.4,10.8,0.00,SSW,203,0.0,0.0,47,0.00,,---,0.00,VWS V14.00,2013-02-09 23:29:00,
2013-02-09 16:30:00,28.4,10.8,0.00,SSW,203,0.0,0.0,47,0.00,,---,0.00,VWS V14.00,2013-02-09 23:30:00,
2013-02-09 16:32:00,28.4,10.8,0.00,SSW,204,0.0,0.0,47,0.00,,---,0.00,VWS V14.00,2013-02-09 23:32:00,
2013-02-09 16:34:00,28.2,10.6,0.00,South,177,0.0,0.0,47,0.00,,---,0.00,VWS V14.00,2013-02-09 23:34:00,
2013-02-09 16:35:00,28.2,10.6,0.00,South,175,0.0,0.0,47,0.00,,---,0.00,VWS V14.00,2013-02-09 23:35:00,
2013-02-09 16:37:00,28.2,10.6,0.00,South,172,0.0,0.0,47,0.00,,---,0.00,VWS V14.00,2013-02-09 23:37:00,
2013-02-09 16:39:00,28.2,10.6,0.00,ESE,117,2.7,3.1,47,0.00,,---,0.00,VWS V14.00,2013-02-09 23:39:00,
2013-02-09 16:41:00,28.0,10.4,0.00,ESE,117,0.0,2.2,47,0.00,,---,0.00,VWS V14.00,2013-02-09 23:41:00,
2013-02-09 16:42:00,28.0,10.4,0.00,ESE,117,0.0,0.0,47,0.00,,---,0.00,VWS V14.00,2013-02-09 23:42:00,
2013-02-09 16:44:00,28.0,10.4,0.00,ESE,117,0.0,0.0,47,0.00,,---,0.00,VWS V14.00,2013-02-09 23:44:00,
2013-02-09 16:46:00,28.0,10.4,0.00,ESE,117,0.0,0.0,47,0.00,,---,0.00,VWS V14.00,2013-02-09 23:46:00,
2013-02-09 16:47:00,27.9,10.3,0.00,ESE,117,0.0,0.0,47,0.00,,---,0.00,VWS V14.00,2013-02-09 23:47:00,
2013-02-09 16:49:00,27.9,9.8,0.00,ESE,117,0.0,0.0,46,0.00,,---,0.00,VWS V14.00,2013-02-09 23:49:00,
2013-02-09 16:50:00,27.9,9.8,0.00,ESE,117,0.0,0.0,46,0.00,,---,0.00,VWS V14.00,2013-02-09 23:50:00,
2013-02-09 16:51:00,27.9,9.8,0.00,ESE,117,0.0,0.0,46,0.00,,---,0.00,VWS V14.00,2013-02-09 23:51:00,
2013-02-09 16:52:00,27.9,10.3,0.00,ESE,117,0.0,0.0,47,0.00,,---,0.00,VWS V14.00,2013-02-09 23:52:00,
2013-02-09 16:55:00,27.7,9.6,0.00,ESE,117,0.0,0.0,46,0.00,,---,0.00,VWS V14.00,2013-02-09 23:55:00,
2013-02-09 16:56:00,27.7,10.1,0.00,ESE,117,0.0,0.0,47,0.00,,---,0.00,VWS V14.00,2013-02-09 23:56:00,
2013-02-09 16:57:00,27.5,9.9,0.00,ESE,117,0.0,0.0,47,0.00,,---,0.00,VWS V14.00,2013-02-09 23:57:00,
2013-02-09 17:00:00,27.5,9.9,0.00,ESE,117,0.0,0.0,47,0.00,,---,0.00,VWS V14.00,2013-02-10 00:00:00,
2013-02-09 17:01:00,27.5,9.4,0.00,ESE,117,0.0,0.0,46,0.00,,---,0.00,VWS V14.00,2013-02-10 00:01:00,
2013-02-09 17:02:00,27.3,9.3,0.00,ESE,117,0.0,0.0,46,0.00,,---,0.00,VWS V14.00,2013-02-10 00:02:00,
2013-02-09 17:05:00,27.3,9.3,0.00,ESE,117,0.0,0.0,46,0.00,,---,0.00,VWS V14.00,2013-02-10 00:05:00,
2013-02-09 17:06:00,27.3,9.3,0.00,ESE,117,0.0,0.0,46,0.00,,---,0.00,VWS V14.00,2013-02-10 00:06:00,
2013-02-09 17:07:00,27.3,9.3,0.00,ESE,117,0.0,0.0,46,0.00,,---,0.00,VWS V14.00,2013-02-10 00:07:00,
2013-02-09 17:10:00,27.1,9.1,0.00,ESE,117,0.0,0.0,46,0.00,,---,0.00,VWS V14.00,2013-02-10 00:10:00,
2013-02-09 17:11:00,27.0,8.9,0.00,ESE,117,0.0,0.0,46,0.00,,---,0.00,VWS V14.00,2013-02-10 00:11:00,
2013-02-09 17:12:00,27.0,8.9,0.00,ESE,117,0.0,0.0,46,0.00,,---,0.00,VWS V14.00,2013-02-10 00:12:00,
2013-02-09 17:15:00,27.0,8.9,0.00,ESE,117,0.0,0.0,46,0.00,,---,0.00,VWS V14.00,2013-02-10 00:15:00,
2013-02-09 17:16:00,27.0,8.9,0.00,ESE,117,0.0,0.0,46,0.00,,---,0.00,VWS V14.00,2013-02-10 00:16:00,
2013-02-09 17:17:00,27.0,8.9,0.00,ESE,117,0.0,0.0,46,0.00,,---,0.00,VWS V14.00,2013-02-10 00:17:00,
2013-02-09 17:20:00,26.8,8.8,0.00,ESE,117,0.0,0.0,46,0.00,,---,0.00,VWS V14.00,2013-02-10 00:20:00,
2013-02-09 17:21:00,26.8,8.8,0.00,ESE,117,0.0,0.0,46,0.00,,---,0.00,VWS V14.00,2013-02-10 00:21:00,
2013-02-09 17:22:00,26.6,8.6,0.00,ESE,117,0.0,0.0,46,0.00,,---,0.00,VWS V14.00,2013-02-10 00:22:00,
2013-02-09 17:25:00,26.4,8.5,0.00,ESE,117,0.0,0.0,46,0.00,,---,0.00,VWS V14.00,2013-02-10 00:25:00,
2013-02-09 17:26:00,26.4,8.5,0.00,ESE,117,0.0,0.0,46,0.00,,---,0.00,VWS V14.00,2013-02-10 00:26:00,
2013-02-09 17:27:00,26.4,8.5,0.00,ESE,117,0.0,0.0,46,0.00,,---,0.00,VWS V14.00,2013-02-10 00:27:00,
2013-02-09 17:30:00,26.2,8.3,0.00,ESE,117,0.0,0.0,46,0.00,,---,0.00,VWS V14.00,2013-02-10 00:30:00,
2013-02-09 17:31:00,26.2,8.3,0.00,ESE,117,0.0,0.0,46,0.00,,---,0.00,VWS V14.00,2013-02-10 00:31:00,
2013-02-09 17:32:00,26.1,8.1,0.00,ESE,117,0.0,0.0,46,0.00,,---,0.00,VWS V14.00,2013-02-10 00:32:00,
2013-02-09 17:35:00,26.1,8.1,0.00,ESE,117,0.0,0.0,46,0.00,,---,0.00,VWS V14.00,2013-02-10 00:35:00,
2013-02-09 17:36:00,26.1,8.1,0.00,ESE,117,0.0,0.0,46,0.00,,---,0.00,VWS V14.00,2013-02-10 00:36:00,
2013-02-09 17:37:00,26.1,8.1,0.00,ESE,117,0.0,0.0,46,0.00,,---,0.00,VWS V14.00,2013-02-10 00:37:00,
2013-02-09 17:40:00,25.9,8.0,0.00,ESE,117,0.0,0.0,46,0.00,,---,0.00,VWS V14.00,2013-02-10 00:40:00,
2013-02-09 17:41:00,25.9,8.0,0.00,ESE,117,0.0,0.0,46,0.00,,---,0.00,VWS V14.00,2013-02-10 00:41:00,
2013-02-09 17:43:00,25.7,7.8,0.00,ESE,117,0.0,0.0,46,0.00,,---,0.00,VWS V14.00,2013-02-10 00:43:00,
2013-02-09 17:45:00,25.7,7.8,0.00,ESE,117,0.0,0.0,46,0.00,,---,0.00,VWS V14.00,2013-02-10 00:45:00,
2013-02-09 17:47:00,25.5,7.6,0.00,ESE,117,0.0,0.0,46,0.00,,---,0.00,VWS V14.00,2013-02-10 00:47:00,
2013-02-09 17:50:00,25.3,7.5,0.00,ESE,117,0.0,0.0,46,0.00,,---,0.00,VWS V14.00,2013-02-10 00:50:00,
2013-02-09 17:52:00,25.3,7.5,0.00,ESE,117,0.0,0.0,46,0.00,,---,0.00,VWS V14.00,2013-02-10 00:52:00,
2013-02-09 17:53:00,25.2,7.3,0.00,ESE,117,0.0,0.0,46,0.00,,---,0.00,VWS V14.00,2013-02-10 00:53:00,
2013-02-09 17:55:00,25.0,7.1,0.00,ESE,117,0.0,0.0,46,0.00,,---,0.00,VWS V14.00,2013-02-10 00:55:00,
2013-02-09 18:33:00,23.4,6.6,0.00,ESE,117,0.0,0.0,48,0.00,,---,0.00,VWS V14.00,2013-02-10 01:33:00,
2013-02-09 18:43:00,23.2,6.9,0.00,ESE,117,0.0,0.0,49,0.00,,---,0.00,VWS V14.00,2013-02-10 01:43:00,
2013-02-09 18:48:00,23.0,7.1,0.00,ESE,117,0.0,0.0,50,0.00,,---,0.00,VWS V14.00,2013-02-10 01:48:00,
2013-02-09 18:53:00,22.8,7.4,0.00,ESE,117,0.0,0.0,51,0.00,,---,0.00,VWS V14.00,2013-02-10 01:53:00,
2013-02-09 18:54:00,22.8,7.4,0.00,ESE,117,0.0,0.0,51,0.00,,---,0.00,VWS V14.00,2013-02-10 01:54:00,
2013-02-09 18:58:00,22.8,7.8,0.00,ESE,117,0.0,0.0,52,0.00,,---,0.00,VWS V14.00,2013-02-10 01:58:00,
2013-02-09 18:59:00,22.8,7.8,0.00,ESE,117,0.0,0.0,52,0.00,,---,0.00,VWS V14.00,2013-02-10 01:59:00,
2013-02-09 19:03:00,22.8,7.8,0.00,East,95,2.7,4.0,52,0.00,,---,0.00,VWS V14.00,2013-02-10 02:03:00,
2013-02-09 19:04:00,22.8,7.8,0.00,East,95,2.7,4.0,52,0.00,,---,0.00,VWS V14.00,2013-02-10 02:04:00,
2013-02-09 19:05:00,22.8,7.8,0.00,East,101,3.1,4.0,52,0.00,,---,0.00,VWS V14.00,2013-02-10 02:05:00,
2013-02-09 19:08:00,22.6,7.7,0.00,ESE,102,0.0,0.0,52,0.00,,---,0.00,VWS V14.00,2013-02-10 02:08:00,
2013-02-09 19:09:00,22.6,7.7,0.00,ESE,102,0.0,0.0,52,0.00,,---,0.00,VWS V14.00,2013-02-10 02:09:00,
2013-02-09 19:10:00,22.6,7.7,0.00,ESE,103,0.0,0.0,52,0.00,,---,0.00,VWS V14.00,2013-02-10 02:10:00,
2013-02-09 19:13:00,22.6,7.7,0.00,ESE,102,0.0,0.0,52,0.00,,---,0.00,VWS V14.00,2013-02-10 02:13:00,
2013-02-09 19:14:00,22.6,7.7,0.00,ESE,102,0.0,0.0,52,0.00,,---,0.00,VWS V14.00,2013-02-10 02:14:00,
2013-02-09 19:15:00,22.6,7.7,0.00,ESE,102,0.0,0.0,52,0.00,,---,0.00,VWS V14.00,2013-02-10 02:15:00,
2013-02-09 19:18:00,22.5,7.5,0.00,ESE,102,0.0,0.0,52,0.00,,---,0.00,VWS V14.00,2013-02-10 02:18:00,
2013-02-09 19:19:00,22.5,7.5,0.00,ESE,102,0.0,0.0,52,0.00,,---,0.00,VWS V14.00,2013-02-10 02:19:00,
2013-02-09 19:20:00,22.5,7.5,0.00,ESE,102,0.0,0.0,52,0.00,,---,0.00,VWS V14.00,2013-02-10 02:20:00,
2013-02-09 19:24:00,22.5,7.1,0.00,ESE,102,0.0,0.0,51,0.00,,---,0.00,VWS V14.00,2013-02-10 02:24:00,
2013-02-09 19:25:00,22.5,7.1,0.00,ESE,102,0.0,0.0,51,0.00,,---,0.00,VWS V14.00,2013-02-10 02:25:00,
2013-02-09 19:29:00,22.3,6.5,0.00,ESE,102,0.0,0.0,50,0.00,,---,0.00,VWS V14.00,2013-02-10 02:29:00,
2013-02-09 19:30:00,22.3,6.5,0.00,ESE,103,0.0,0.0,50,0.00,,---,0.00,VWS V14.00,2013-02-10 02:30:00,
2013-02-09 19:34:00,22.3,6.5,0.00,ESE,103,0.0,0.0,50,0.00,,---,0.00,VWS V14.00,2013-02-10 02:34:00,
2013-02-09 19:35:00,22.1,6.3,0.00,ESE,103,0.0,0.0,50,0.00,,---,0.00,VWS V14.00,2013-02-10 02:35:00,
2013-02-09 19:39:00,22.1,6.3,0.00,ESE,102,0.0,0.0,50,0.00,,---,0.00,VWS V14.00,2013-02-10 02:39:00,
2013-02-09 19:41:00,22.1,5.9,0.00,ESE,102,0.0,0.0,49,0.00,,---,0.00,VWS V14.00,2013-02-10 02:41:00,
2013-02-09 19:44:00,21.9,5.7,0.00,East,98,0.0,0.0,49,0.00,,---,0.00,VWS V14.00,2013-02-10 02:44:00,
2013-02-09 19:45:00,21.9,5.7,0.00,ESE,103,0.0,0.0,49,0.00,,---,0.00,VWS V14.00,2013-02-10 02:45:00,
2013-02-09 19:46:00,21.9,5.7,0.00,ESE,103,0.0,0.0,49,0.00,,---,0.00,VWS V14.00,2013-02-10 02:46:00,
2013-02-09 19:49:00,21.9,5.7,0.00,ESE,103,0.0,0.0,49,0.00,,---,0.00,VWS V14.00,2013-02-10 02:49:00,
2013-02-09 19:50:00,21.7,5.5,0.00,ESE,102,0.0,0.0,49,0.00,,---,0.00,VWS V14.00,2013-02-10 02:50:00,
2013-02-09 19:51:00,21.7,5.5,0.00,ESE,102,0.0,0.0,49,0.00,,---,0.00,VWS V14.00,2013-02-10 02:51:00,
2013-02-09 19:54:00,21.6,5.8,0.00,ESE,103,0.0,0.0,50,0.00,,---,0.00,VWS V14.00,2013-02-10 02:54:00,
2013-02-09 19:55:00,21.6,5.8,0.00,ESE,103,0.0,0.0,50,0.00,,---,0.00,VWS V14.00,2013-02-10 02:55:00,
2013-02-09 19:56:00,21.6,5.8,0.00,ESE,102,0.0,0.0,50,0.00,,---,0.00,VWS V14.00,2013-02-10 02:56:00,
2013-02-09 19:59:00,21.4,5.2,0.00,ESE,103,0.0,0.0,49,0.00,,---,0.00,VWS V14.00,2013-02-10 02:59:00,
2013-02-09 20:00:00,21.4,5.2,0.00,ESE,102,0.0,0.0,49,0.00,,---,0.00,VWS V14.00,2013-02-10 03:00:00,
2013-02-09 20:01:00,21.4,5.2,0.00,ESE,103,0.0,0.0,49,0.00,,---,0.00,VWS V14.00,2013-02-10 03:01:00,
2013-02-09 20:04:00,21.4,5.6,0.00,ESE,103,0.0,0.0,50,0.00,,---,0.00,VWS V14.00,2013-02-10 03:04:00,
2013-02-09 20:05:00,21.2,5.5,0.00,ESE,103,0.0,0.0,50,0.00,,---,0.00,VWS V14.00,2013-02-10 03:05:00,
2013-02-09 20:06:00,21.2,5.5,0.00,ESE,103,0.0,0.0,50,0.00,,---,0.00,VWS V14.00,2013-02-10 03:06:00,
2013-02-09 20:09:00,21.2,5.5,0.00,ESE,102,0.0,0.0,50,0.00,,---,0.00,VWS V14.00,2013-02-10 03:09:00,
2013-02-09 20:10:00,21.2,5.5,0.00,ESE,103,0.0,0.0,50,0.00,,---,0.00,VWS V14.00,2013-02-10 03:10:00,
2013-02-09 20:11:00,21.2,5.5,0.00,ESE,102,0.0,0.0,50,0.00,,---,0.00,VWS V14.00,2013-02-10 03:11:00,
2013-02-09 20:15:00,21.2,5.5,0.00,ESE,103,0.0,0.0,50,0.00,,---,0.00,VWS V14.00,2013-02-10 03:15:00,
2013-02-09 20:16:00,21.0,5.3,0.00,ESE,102,0.0,0.0,50,0.00,,---,0.00,VWS V14.00,2013-02-10 03:16:00,
2013-02-09 20:20:00,21.0,5.3,0.00,ESE,102,0.0,0.0,50,0.00,,---,0.00,VWS V14.00,2013-02-10 03:20:00,
2013-02-09 20:21:00,21.0,5.3,0.00,ESE,102,0.0,0.0,50,0.00,,---,0.00,VWS V14.00,2013-02-10 03:21:00,
2013-02-09 20:25:00,20.8,5.1,0.00,ESE,102,0.0,0.0,50,0.00,,---,0.00,VWS V14.00,2013-02-10 03:25:00,
2013-02-09 20:27:00,20.8,5.1,0.00,ESE,102,0.0,0.0,50,0.00,,---,0.00,VWS V14.00,2013-02-10 03:27:00,
2013-02-09 20:30:00,20.7,5.0,0.00,ESE,102,0.0,0.0,50,0.00,,---,0.00,VWS V14.00,2013-02-10 03:30:00,
2013-02-09 20:32:00,20.7,5.0,0.00,ESE,103,0.0,0.0,50,0.00,,---,0.00,VWS V14.00,2013-02-10 03:32:00,
2013-02-09 20:35:00,20.7,5.0,0.00,ESE,103,0.0,0.0,50,0.00,,---,0.00,VWS V14.00,2013-02-10 03:35:00,
2013-02-09 20:36:00,20.7,5.0,0.00,ESE,103,0.0,0.0,50,0.00,,---,0.00,VWS V14.00,2013-02-10 03:36:00,
2013-02-09 20:37:00,20.5,4.4,0.00,ESE,103,0.0,0.0,49,0.00,,---,0.00,VWS V14.00,2013-02-10 03:37:00,
2013-02-09 20:40:00,20.5,4.4,0.00,ESE,103,0.0,0.0,49,0.00,,---,0.00,VWS V14.00,2013-02-10 03:40:00,
2013-02-09 20:41:00,20.5,4.4,0.00,ESE,103,0.0,0.0,49,0.00,,---,0.00,VWS V14.00,2013-02-10 03:41:00,
2013-02-09 20:42:00,20.3,4.2,0.00,ESE,103,0.0,0.0,49,0.00,,---,0.00,VWS V14.00,2013-02-10 03:42:00,
2013-02-09 20:45:00,20.3,4.2,0.00,ESE,103,0.0,0.0,49,0.00,,---,0.00,VWS V14.00,2013-02-10 03:45:00,
2013-02-09 20:46:00,20.3,4.2,0.00,ESE,103,0.0,0.0,49,0.00,,---,0.00,VWS V14.00,2013-02-10 03:46:00,
2013-02-09 20:47:00,20.3,4.2,0.00,ESE,102,0.0,0.0,49,0.00,,---,0.00,VWS V14.00,2013-02-10 03:47:00,
2013-02-09 20:50:00,20.1,4.5,0.00,ESE,103,0.0,0.0,50,0.00,,---,0.00,VWS V14.00,2013-02-10 03:50:00,
2013-02-09 20:51:00,20.1,4.5,0.00,ESE,103,0.0,0.0,50,0.00,,---,0.00,VWS V14.00,2013-02-10 03:51:00,
2013-02-09 20:52:00,19.9,4.3,0.00,ESE,103,0.0,0.0,50,0.00,,---,0.00,VWS V14.00,2013-02-10 03:52:00,
2013-02-09 20:55:00,19.9,4.3,0.00,ESE,103,0.0,0.0,50,0.00,,---,0.00,VWS V14.00,2013-02-10 03:55:00,
2013-02-09 20:56:00,19.9,4.3,0.00,ESE,102,0.0,0.0,50,0.00,,---,0.00,VWS V14.00,2013-02-10 03:56:00,
2013-02-09 20:57:00,19.9,4.3,0.00,ESE,103,0.0,0.0,50,0.00,,---,0.00,VWS V14.00,2013-02-10 03:57:00,
2013-02-09 21:00:00,19.8,5.0,0.00,SSE,148,0.0,0.0,52,0.00,,---,0.00,VWS V14.00,2013-02-10 04:00:00,
2013-02-09 21:01:00,19.8,5.0,0.00,SSE,148,0.0,0.0,52,0.00,,---,0.00,VWS V14.00,2013-02-10 04:01:00,
2013-02-09 21:03:00,19.8,5.4,0.00,SSE,148,0.0,0.0,53,0.00,,---,0.00,VWS V14.00,2013-02-10 04:03:00,
2013-02-09 21:05:00,19.6,5.2,0.00,SSE,148,0.0,0.0,53,0.00,,---,0.00,VWS V14.00,2013-02-10 04:05:00,
2013-02-09 21:06:00,19.6,5.2,0.00,SE,134,2.7,2.7,53,0.00,,---,0.00,VWS V14.00,2013-02-10 04:06:00,
2013-02-09 21:08:00,19.6,5.2,0.00,SE,134,0.0,0.0,53,0.00,,---,0.00,VWS V14.00,2013-02-10 04:08:00,
2013-02-09 21:10:00,19.6,5.7,0.00,SE,134,0.0,0.0,54,0.00,,---,0.00,VWS V14.00,2013-02-10 04:10:00,
2013-02-09 21:11:00,19.6,5.7,0.00,SE,134,0.0,0.0,54,0.00,,---,0.00,VWS V14.00,2013-02-10 04:11:00,
2013-02-09 21:13:00,19.4,5.5,0.00,SE,134,0.0,0.0,54,0.00,,---,0.00,VWS V14.00,2013-02-10 04:13:00,
2013-02-09 21:15:00,19.4,5.5,0.00,SE,134,0.0,0.0,54,0.00,,---,0.00,VWS V14.00,2013-02-10 04:15:00,
2013-02-09 21:16:00,19.4,5.5,0.00,SE,134,0.0,0.0,54,0.00,,---,0.00,VWS V14.00,2013-02-10 04:16:00,
2013-02-09 21:18:00,19.4,5.5,0.00,SE,128,0.0,2.7,54,0.00,,---,0.00,VWS V14.00,2013-02-10 04:18:00,
2013-02-09 21:20:00,19.4,5.5,0.00,SE,126,0.0,0.0,54,0.00,,---,0.00,VWS V14.00,2013-02-10 04:20:00,
2013-02-09 21:21:00,19.4,5.5,0.00,SE,129,0.0,0.0,54,0.00,,---,0.00,VWS V14.00,2013-02-10 04:21:00,
2013-02-09 21:23:00,19.2,5.3,0.00,SE,146,0.0,0.0,54,0.00,,---,0.00,VWS V14.00,2013-02-10 04:23:00,
2013-02-09 21:26:00,19.2,5.3,0.00,SSE,147,0.0,0.0,54,0.00,,---,0.00,VWS V14.00,2013-02-10 04:26:00,
2013-02-09 21:28:00,19.2,5.3,0.00,SE,146,0.0,0.0,54,0.00,,---,0.00,VWS V14.00,2013-02-10 04:28:00,
2013-02-09 21:31:00,19.2,5.3,0.00,SSE,147,0.0,0.0,54,0.00,,---,0.00,VWS V14.00,2013-02-10 04:31:00,
2013-02-09 21:32:00,19.2,5.3,0.00,SSE,147,0.0,0.0,54,0.00,,---,0.00,VWS V14.00,2013-02-10 04:32:00,
2013-02-09 21:33:00,19.2,5.3,0.00,SSE,147,0.0,0.0,54,0.00,,---,0.00,VWS V14.00,2013-02-10 04:33:00,
2013-02-09 21:36:00,19.2,5.3,0.00,SSE,147,0.0,0.0,54,0.00,,---,0.00,VWS V14.00,2013-02-10 04:36:00,
2013-02-09 21:37:00,19.2,5.3,0.00,SSE,147,0.0,0.0,54,0.00,,---,0.00,VWS V14.00,2013-02-10 04:37:00,
2013-02-09 21:38:00,19.2,5.3,0.00,SSE,147,0.0,0.0,54,0.00,,---,0.00,VWS V14.00,2013-02-10 04:38:00,
2013-02-09 21:41:00,19.0,5.1,0.00,SSE,147,0.0,0.0,54,0.00,,---,0.00,VWS V14.00,2013-02-10 04:41:00,
2013-02-09 21:42:00,19.0,5.1,0.00,SSE,147,0.0,0.0,54,0.00,,---,0.00,VWS V14.00,2013-02-10 04:42:00,
2013-02-09 21:43:00,19.0,5.1,0.00,SSE,147,0.0,0.0,54,0.00,,---,0.00,VWS V14.00,2013-02-10 04:43:00,
2013-02-09 21:46:00,19.0,5.1,0.00,SSE,147,0.0,0.0,54,0.00,,---,0.00,VWS V14.00,2013-02-10 04:46:00,
2013-02-09 21:47:00,19.0,5.1,0.00,SSE,147,0.0,0.0,54,0.00,,---,0.00,VWS V14.00,2013-02-10 04:47:00,
2013-02-09 21:48:00,19.0,5.1,0.00,SSE,147,0.0,0.0,54,0.00,,---,0.00,VWS V14.00,2013-02-10 04:48:00,
2013-02-09 21:51:00,18.9,5.0,0.00,SSE,147,0.0,0.0,54,0.00,,---,0.00,VWS V14.00,2013-02-10 04:51:00,
2013-02-09 21:52:00,18.9,5.0,0.00,SSE,147,0.0,0.0,54,0.00,,---,0.00,VWS V14.00,2013-02-10 04:52:00,
2013-02-09 21:53:00,18.9,5.0,0.00,SSE,147,0.0,0.0,54,0.00,,---,0.00,VWS V14.00,2013-02-10 04:53:00,
2013-02-09 21:56:00,18.9,5.0,0.00,SSE,147,0.0,0.0,54,0.00,,---,0.00,VWS V14.00,2013-02-10 04:56:00,
2013-02-09 21:57:00,18.9,5.0,0.00,SSE,147,0.0,0.0,54,0.00,,---,0.00,VWS V14.00,2013-02-10 04:57:00,
2013-02-09 21:58:00,18.7,4.8,0.00,SSE,147,0.0,0.0,54,0.00,,---,0.00,VWS V14.00,2013-02-10 04:58:00,
2013-02-09 22:00:00,18.7,4.8,0.00,SSE,147,0.0,0.0,54,0.00,,---,0.00,VWS V14.00,2013-02-10 05:00:00,
2013-02-09 22:05:00,18.5,4.6,0.00,SSE,147,0.0,0.0,54,0.00,,---,0.00,VWS V14.00,2013-02-10 05:05:00,
2013-02-09 22:10:00,18.3,4.1,0.00,SSE,148,0.0,0.0,53,0.00,,---,0.00,VWS V14.00,2013-02-10 05:10:00,
2013-02-09 22:15:00,18.1,3.9,0.00,SSE,147,0.0,0.0,53,0.00,,---,0.00,VWS V14.00,2013-02-10 05:15:00,
2013-02-09 22:20:00,18.0,3.7,0.00,SSE,147,0.0,0.0,53,0.00,,---,0.00,VWS V14.00,2013-02-10 05:20:00,
2013-02-09 22:25:00,17.8,3.6,0.00,SSE,147,0.0,0.0,53,0.00,,---,0.00,VWS V14.00,2013-02-10 05:25:00,
2013-02-09 22:30:00,17.8,4.0,0.00,SSE,147,0.0,0.0,54,0.00,,---,0.00,VWS V14.00,2013-02-10 05:30:00,
2013-02-09 22:31:00,17.6,3.8,0.00,SSE,147,0.0,0.0,54,0.00,,---,0.00,VWS V14.00,2013-02-10 05:31:00,
2013-02-09 22:35:00,17.6,3.8,0.00,SE,146,0.0,0.0,54,0.00,,---,0.00,VWS V14.00,2013-02-10 05:35:00,
2013-02-09 22:36:00,17.6,3.8,0.00,SSE,147,0.0,0.0,54,0.00,,---,0.00,VWS V14.00,2013-02-10 05:36:00,
2013-02-09 22:40:00,17.4,3.6,0.00,SE,146,0.0,0.0,54,0.00,,---,0.00,VWS V14.00,2013-02-10 05:40:00,
2013-02-09 22:41:00,17.4,3.6,0.00,SSE,147,0.0,0.0,54,0.00,,---,0.00,VWS V14.00,2013-02-10 05:41:00,
2013-02-09 22:45:00,17.1,3.3,0.00,SSE,149,0.0,0.0,54,0.00,,---,0.00,VWS V14.00,2013-02-10 05:45:00,
2013-02-09 22:46:00,17.1,3.3,0.00,SSE,148,0.0,0.0,54,0.00,,---,0.00,VWS V14.00,2013-02-10 05:46:00,
2013-02-09 22:50:00,17.1,3.3,0.00,SSE,147,0.0,0.0,54,0.00,,---,0.00,VWS V14.00,2013-02-10 05:50:00,
2013-02-09 22:51:00,17.1,3.3,0.00,SE,145,0.0,0.0,54,0.00,,---,0.00,VWS V14.00,2013-02-10 05:51:00,
2013-02-09 22:55:00,16.9,3.5,0.00,SSE,149,0.0,0.0,55,0.00,,---,0.00,VWS V14.00,2013-02-10 05:55:00,
2013-02-09 22:56:00,16.9,3.5,0.00,SSE,148,0.0,0.0,55,0.00,,---,0.00,VWS V14.00,2013-02-10 05:56:00,
2013-02-09 23:00:00,16.9,3.5,0.00,SE,146,0.0,0.0,55,0.00,,---,0.00,VWS V14.00,2013-02-10 06:00:00,
2013-02-09 23:01:00,16.9,3.5,0.00,SSE,148,0.0,0.0,55,0.00,,---,0.00,VWS V14.00,2013-02-10 06:01:00,
2013-02-09 23:05:00,16.9,3.5,0.00,SSE,149,0.0,0.0,55,0.00,,---,0.00,VWS V14.00,2013-02-10 06:05:00,
2013-02-09 23:06:00,16.9,3.5,0.00,SSE,149,0.0,0.0,55,0.00,,---,0.00,VWS V14.00,2013-02-10 06:06:00,
2013-02-09 23:07:00,16.9,3.5,0.00,SSE,149,0.0,0.0,55,0.00,,---,0.00,VWS V14.00,2013-02-10 06:07:00,
2013-02-09 23:10:00,16.7,3.3,0.00,SSE,156,0.0,0.0,55,0.00,,---,0.00,VWS V14.00,2013-02-10 06:10:00,
2013-02-09 23:11:00,16.7,3.3,0.00,SSE,156,0.0,0.0,55,0.00,,---,0.00,VWS V14.00,2013-02-10 06:11:00,
2013-02-09 23:12:00,16.7,3.3,0.00,SSE,157,0.0,0.0,55,0.00,,---,0.00,VWS V14.00,2013-02-10 06:12:00,
2013-02-09 23:15:00,16.5,3.2,0.00,SSE,157,0.0,0.0,55,0.00,,---,0.00,VWS V14.00,2013-02-10 06:15:00,
2013-02-09 23:16:00,16.5,3.2,0.00,SSE,157,0.0,0.0,55,0.00,,---,0.00,VWS V14.00,2013-02-10 06:16:00,
2013-02-09 23:17:00,16.5,3.2,0.00,SSE,157,0.0,0.0,55,0.00,,---,0.00,VWS V14.00,2013-02-10 06:17:00,
2013-02-09 23:20:00,16.5,3.2,0.00,SSE,157,0.0,0.0,55,0.00,,---,0.00,VWS V14.00,2013-02-10 06:20:00,
2013-02-09 23:21:00,16.5,3.2,0.00,SSE,157,0.0,0.0,55,0.00,,---,0.00,VWS V14.00,2013-02-10 06:21:00,
2013-02-09 23:22:00,16.5,3.2,0.00,SSE,157,0.0,0.0,55,0.00,,---,0.00,VWS V14.00,2013-02-10 06:22:00,
2013-02-09 23:25:00,16.3,3.0,0.00,East,92,0.0,0.0,55,0.00,,---,0.00,VWS V14.00,2013-02-10 06:25:00,
2013-02-09 23:26:00,16.3,3.0,0.00,East,89,0.0,0.0,55,0.00,,---,0.00,VWS V14.00,2013-02-10 06:26:00,
2013-02-09 23:27:00,16.3,3.0,0.00,East,92,0.0,0.0,55,0.00,,---,0.00,VWS V14.00,2013-02-10 06:27:00,
2013-02-09 23:30:00,16.2,2.5,0.00,South,186,0.0,0.0,54,0.00,,---,0.00,VWS V14.00,2013-02-10 06:30:00,
2013-02-09 23:31:00,16.2,2.5,0.00,South,187,0.0,0.0,54,0.00,,---,0.00,VWS V14.00,2013-02-10 06:31:00,
2013-02-09 23:32:00,16.0,2.3,0.00,South,186,0.0,0.0,54,0.00,,---,0.00,VWS V14.00,2013-02-10 06:32:00,
2013-02-09 23:35:00,16.0,2.3,0.00,South,186,0.0,0.0,54,0.00,,---,0.00,VWS V14.00,2013-02-10 06:35:00,
2013-02-09 23:36:00,16.0,2.3,0.00,South,186,0.0,0.0,54,0.00,,---,0.00,VWS V14.00,2013-02-10 06:36:00,
2013-02-09 23:37:00,16.0,2.3,0.00,South,186,0.0,0.0,54,0.00,,---,0.00,VWS V14.00,2013-02-10 06:37:00,
2013-02-09 23:38:00,16.0,2.3,0.00,South,183,0.0,0.0,54,0.00,,---,0.00,VWS V14.00,2013-02-10 06:38:00,
2013-02-09 23:41:00,16.0,2.3,0.00,South,187,0.0,0.0,54,0.00,,---,0.00,VWS V14.00,2013-02-10 06:41:00,
2013-02-09 23:42:00,16.0,2.7,0.00,South,186,0.0,0.0,55,0.00,,---,0.00,VWS V14.00,2013-02-10 06:42:00,
2013-02-09 23:43:00,16.0,2.7,0.00,South,187,0.0,0.0,55,0.00,,---,0.00,VWS V14.00,2013-02-10 06:43:00,
2013-02-09 23:46:00,16.0,2.7,0.00,South,187,0.0,0.0,55,0.00,,---,0.00,VWS V14.00,2013-02-10 06:46:00,
2013-02-09 23:47:00,16.0,2.7,0.00,South,187,0.0,0.0,55,0.00,,---,0.00,VWS V14.00,2013-02-10 06:47:00,
2013-02-09 23:48:00,16.0,2.7,0.00,South,186,0.0,0.0,55,0.00,,---,0.00,VWS V14.00,2013-02-10 06:48:00,
2013-02-09 23:51:00,16.0,2.7,0.00,South,186,0.0,0.0,55,0.00,,---,0.00,VWS V14.00,2013-02-10 06:51:00,
2013-02-09 23:53:00,15.8,2.5,0.00,South,187,0.0,0.0,55,0.00,,---,0.00,VWS V14.00,2013-02-10 06:53:00,
2013-02-09 23:56:00,15.8,2.5,0.00,South,190,0.0,0.0,55,0.00,,---,0.00,VWS V14.00,2013-02-10 06:56:00,
2013-02-09 23:58:00,15.8,2.9,0.00,SSW,208,0.0,0.0,56,0.00,,---,0.00,VWS V14.00,2013-02-10 06:58:00,